<?xml version="1.0" encoding="UTF-8" standalone="no" ?>
<gpx xmlns="http://www.topografix.com/GPX/1/1" xmlns:xsi="http://www.w3.org/2001/XMLSchema-instance" xsi:schemaLocation="http://www.topografix.com/GPX/1/1 http://www.topografix.com/GPX/1/1/gpx.xsd" version="1.1" creator="VisuGPX - https://www.visugpx.com">
  <metadata>
    <name>Ex  La Diane 2023   16 km</name>
  </metadata>
  <trk>
    <name><![CDATA[Trail des reculees 2022  La Diane sur TraceDeTrail.fr]]></name>
    <extensions>
      <line xmlns="http://www.topografix.com/GPX/gpx_style/0/2">
        <color>0000FF</color>
        <width>4</width>
      </line>
    </extensions>
    <trkseg>
      <trkpt lat="46.67441" lon="5.55327">
        <ele>254</ele>
        <time>2000-01-01T01:39:06.000Z</time>
        <extensions>
          <visugpx:TrkExtension xmlns:visugpx="https://www.visugpx.com/editgpx/">
            <visugpx:node>4</visugpx:node>
            </visugpx:TrkExtension>
        </extensions>
      </trkpt>
      <trkpt lat="46.67457" lon="5.55347">
        <ele>254</ele>
        <time>2000-01-01T01:39:16.000Z</time>
      </trkpt>
      <trkpt lat="46.67471" lon="5.55357">
        <ele>255</ele>
        <time>2000-01-01T01:39:26.000Z</time>
      </trkpt>
      <trkpt lat="46.6749" lon="5.55366">
        <ele>254</ele>
        <time>2000-01-01T01:39:36.000Z</time>
      </trkpt>
      <trkpt lat="46.6751" lon="5.5538">
        <ele>254</ele>
        <time>2000-01-01T01:39:46.000Z</time>
      </trkpt>
      <trkpt lat="46.67532" lon="5.55393">
        <ele>255</ele>
        <time>2000-01-01T01:39:56.000Z</time>
      </trkpt>
      <trkpt lat="46.67526" lon="5.55422">
        <ele>255</ele>
        <time>2000-01-01T01:40:06.000Z</time>
      </trkpt>
      <trkpt lat="46.67517" lon="5.55455">
        <ele>256</ele>
        <time>2000-01-01T01:40:16.000Z</time>
      </trkpt>
      <trkpt lat="46.67509" lon="5.55479">
        <ele>256</ele>
        <time>2000-01-01T01:40:26.000Z</time>
      </trkpt>
      <trkpt lat="46.67506" lon="5.55492">
        <ele>256</ele>
        <time>2000-01-01T01:40:36.000Z</time>
      </trkpt>
      <trkpt lat="46.67502" lon="5.55523">
        <ele>256</ele>
        <time>2018-07-17T05:26:10.000Z</time>
      </trkpt>
      <trkpt lat="46.67492" lon="5.55545">
        <ele>257</ele>
        <time>2018-07-17T05:26:20.000Z</time>
      </trkpt>
      <trkpt lat="46.67465" lon="5.55532">
        <ele>256</ele>
        <time>2018-07-17T05:26:30.000Z</time>
      </trkpt>
      <trkpt lat="46.67451" lon="5.55521">
        <ele>256.8</ele>
        <time>2018-07-17T05:26:40.000Z</time>
      </trkpt>
      <trkpt lat="46.67436" lon="5.55514">
        <ele>256</ele>
        <time>2018-07-17T05:27:00.000Z</time>
      </trkpt>
      <trkpt lat="46.6743" lon="5.55513">
        <ele>256.7</ele>
        <time>2018-07-17T05:27:10.000Z</time>
      </trkpt>
      <trkpt lat="46.6741" lon="5.55499">
        <ele>256</ele>
        <time>2018-07-17T05:27:20.000Z</time>
      </trkpt>
      <trkpt lat="46.67386" lon="5.55492">
        <ele>256</ele>
        <time>2018-07-17T05:27:30.000Z</time>
      </trkpt>
      <trkpt lat="46.6736" lon="5.55485">
        <ele>256</ele>
        <time>2018-07-17T05:27:40.000Z</time>
      </trkpt>
      <trkpt lat="46.67349" lon="5.55489">
        <ele>256.3</ele>
        <time>2018-07-17T05:27:50.000Z</time>
      </trkpt>
      <trkpt lat="46.67314" lon="5.55474">
        <ele>256</ele>
        <time>2018-07-17T05:28:20.000Z</time>
      </trkpt>
      <trkpt lat="46.67302" lon="5.55474">
        <ele>256</ele>
        <time>2018-07-17T05:28:30.000Z</time>
      </trkpt>
      <trkpt lat="46.6726" lon="5.55465">
        <ele>256</ele>
        <time>2018-07-17T05:28:40.000Z</time>
      </trkpt>
      <trkpt lat="46.67257" lon="5.55486">
        <ele>256.5</ele>
        <time>2018-07-17T05:28:50.000Z</time>
      </trkpt>
      <trkpt lat="46.67255" lon="5.55515">
        <ele>256</ele>
        <time>2018-07-17T05:29:10.000Z</time>
      </trkpt>
      <trkpt lat="46.67252" lon="5.5553">
        <ele>256.1</ele>
        <time>2018-07-17T05:29:20.000Z</time>
      </trkpt>
      <trkpt lat="46.67251" lon="5.55547">
        <ele>255</ele>
        <time>2018-07-17T05:28:30.000Z</time>
      </trkpt>
      <trkpt lat="46.67255" lon="5.55577">
        <ele>255</ele>
        <time>2018-07-17T05:28:33.000Z</time>
      </trkpt>
      <trkpt lat="46.67259" lon="5.55593">
        <ele>256</ele>
        <time>2018-07-17T05:28:43.000Z</time>
      </trkpt>
      <trkpt lat="46.67261" lon="5.55606">
        <ele>256</ele>
        <time>2018-07-17T05:28:42.000Z</time>
      </trkpt>
      <trkpt lat="46.67268" lon="5.55634">
        <ele>256</ele>
        <time>2018-07-17T05:28:51.000Z</time>
      </trkpt>
      <trkpt lat="46.67271" lon="5.5565">
        <ele>256.4</ele>
        <time>2018-07-17T05:29:01.000Z</time>
      </trkpt>
      <trkpt lat="46.67281" lon="5.55696">
        <ele>256</ele>
        <time>2018-07-17T05:29:11.000Z</time>
      </trkpt>
      <trkpt lat="46.6728" lon="5.55713">
        <ele>257.1</ele>
        <time>2018-07-17T05:29:21.000Z</time>
      </trkpt>
      <trkpt lat="46.67283" lon="5.55757">
        <ele>257</ele>
        <time>2018-07-17T05:29:29.000Z</time>
      </trkpt>
      <trkpt lat="46.67283" lon="5.5577">
        <ele>257.8</ele>
        <time>2018-07-17T05:29:39.000Z</time>
      </trkpt>
      <trkpt lat="46.67284" lon="5.55785">
        <ele>257</ele>
        <time>2018-07-17T05:29:38.000Z</time>
      </trkpt>
      <trkpt lat="46.67283" lon="5.55803">
        <ele>258</ele>
        <time>2018-07-17T05:29:48.000Z</time>
      </trkpt>
      <trkpt lat="46.67284" lon="5.55816">
        <ele>257</ele>
        <time>2018-07-17T05:29:47.000Z</time>
      </trkpt>
      <trkpt lat="46.67284" lon="5.55842">
        <ele>258.5</ele>
        <time>2018-07-17T05:29:57.000Z</time>
      </trkpt>
      <trkpt lat="46.67285" lon="5.55855">
        <ele>258</ele>
        <time>2018-07-17T05:29:59.000Z</time>
      </trkpt>
      <trkpt lat="46.67281" lon="5.55871">
        <ele>259.3</ele>
        <time>2018-07-17T05:30:09.000Z</time>
      </trkpt>
      <trkpt lat="46.67275" lon="5.55883">
        <ele>259</ele>
        <time>2018-07-17T05:30:08.000Z</time>
      </trkpt>
      <trkpt lat="46.67266" lon="5.55905">
        <ele>260</ele>
        <time>2018-07-17T05:30:18.000Z</time>
      </trkpt>
      <trkpt lat="46.67259" lon="5.55917">
        <ele>259</ele>
        <time>2018-07-17T05:30:19.000Z</time>
      </trkpt>
      <trkpt lat="46.67254" lon="5.55932">
        <ele>259.9</ele>
        <time>2018-07-17T05:30:29.000Z</time>
      </trkpt>
      <trkpt lat="46.67253" lon="5.55948">
        <ele>259</ele>
        <time>2018-07-17T05:30:30.000Z</time>
      </trkpt>
      <trkpt lat="46.67246" lon="5.55981">
        <ele>259</ele>
        <time>2018-07-17T05:30:40.000Z</time>
      </trkpt>
      <trkpt lat="46.67247" lon="5.55997">
        <ele>260</ele>
        <time>2018-07-17T05:30:50.000Z</time>
      </trkpt>
      <trkpt lat="46.67244" lon="5.56014">
        <ele>259</ele>
        <time>2018-07-17T05:30:52.000Z</time>
      </trkpt>
      <trkpt lat="46.6724" lon="5.5603">
        <ele>260.4</ele>
        <time>2018-07-17T05:31:02.000Z</time>
      </trkpt>
      <trkpt lat="46.67238" lon="5.56045">
        <ele>260</ele>
        <time>2018-07-17T05:31:02.000Z</time>
      </trkpt>
      <trkpt lat="46.67235" lon="5.56062">
        <ele>260.5</ele>
        <time>2018-07-17T05:31:12.000Z</time>
      </trkpt>
      <trkpt lat="46.67227" lon="5.56093">
        <ele>261</ele>
        <time>2018-07-17T05:31:17.000Z</time>
      </trkpt>
      <trkpt lat="46.67218" lon="5.56102">
        <ele>261.2</ele>
        <time>2018-07-17T05:31:27.000Z</time>
      </trkpt>
      <trkpt lat="46.6721" lon="5.56106">
        <ele>261</ele>
        <time>2018-07-17T05:31:24.000Z</time>
      </trkpt>
      <trkpt lat="46.67201" lon="5.56114">
        <ele>261.8</ele>
        <time>2018-07-17T05:31:34.000Z</time>
      </trkpt>
      <trkpt lat="46.67199" lon="5.56131">
        <ele>261</ele>
        <time>2018-07-17T05:31:36.000Z</time>
      </trkpt>
      <trkpt lat="46.67201" lon="5.56146">
        <ele>261.6</ele>
        <time>2018-07-17T05:31:46.000Z</time>
      </trkpt>
      <trkpt lat="46.672" lon="5.56178">
        <ele>261</ele>
        <time>2018-07-17T05:31:50.000Z</time>
      </trkpt>
      <trkpt lat="46.67195" lon="5.56207">
        <ele>261</ele>
        <time>2018-07-17T05:32:00.000Z</time>
      </trkpt>
      <trkpt lat="46.67189" lon="5.56221">
        <ele>262</ele>
        <time>2018-07-17T05:32:10.000Z</time>
      </trkpt>
      <trkpt lat="46.67169" lon="5.56234">
        <ele>261</ele>
        <time>2018-07-17T05:32:13.000Z</time>
      </trkpt>
      <trkpt lat="46.6716" lon="5.56242">
        <ele>262.2</ele>
        <time>2018-07-17T05:32:23.000Z</time>
      </trkpt>
      <trkpt lat="46.67152" lon="5.56251">
        <ele>262</ele>
        <time>2018-07-17T05:32:22.000Z</time>
      </trkpt>
      <trkpt lat="46.67146" lon="5.56262">
        <ele>262.5</ele>
        <time>2018-07-17T05:32:32.000Z</time>
      </trkpt>
      <trkpt lat="46.6714" lon="5.56277">
        <ele>262</ele>
        <time>2018-07-17T05:32:31.000Z</time>
      </trkpt>
      <trkpt lat="46.67137" lon="5.56292">
        <ele>262.5</ele>
        <time>2018-07-17T05:32:41.000Z</time>
      </trkpt>
      <trkpt lat="46.67132" lon="5.56339">
        <ele>263</ele>
        <time>2018-07-17T05:32:52.000Z</time>
      </trkpt>
      <trkpt lat="46.67125" lon="5.56371">
        <ele>263</ele>
        <time>2018-07-17T05:33:02.000Z</time>
      </trkpt>
      <trkpt lat="46.67124" lon="5.56388">
        <ele>264</ele>
        <time>2018-07-17T05:33:12.000Z</time>
      </trkpt>
      <trkpt lat="46.67122" lon="5.56402">
        <ele>263</ele>
        <time>2018-07-17T05:33:12.000Z</time>
      </trkpt>
      <trkpt lat="46.67119" lon="5.56433">
        <ele>264</ele>
        <time>2018-07-17T05:33:20.000Z</time>
      </trkpt>
      <trkpt lat="46.67119" lon="5.56449">
        <ele>264.2</ele>
        <time>2018-07-17T05:33:30.000Z</time>
      </trkpt>
      <trkpt lat="46.67121" lon="5.56464">
        <ele>264</ele>
        <time>2018-07-17T05:33:30.000Z</time>
      </trkpt>
      <trkpt lat="46.67122" lon="5.56479">
        <ele>265</ele>
        <time>2018-07-17T05:33:40.000Z</time>
      </trkpt>
      <trkpt lat="46.67119" lon="5.56496">
        <ele>264</ele>
        <time>2018-07-17T05:33:39.000Z</time>
      </trkpt>
      <trkpt lat="46.67114" lon="5.56512">
        <ele>265</ele>
        <time>2018-07-17T05:33:49.000Z</time>
      </trkpt>
      <trkpt lat="46.67108" lon="5.56526">
        <ele>265</ele>
        <time>2018-07-17T05:33:48.000Z</time>
      </trkpt>
      <trkpt lat="46.671" lon="5.56538">
        <ele>265.4</ele>
        <time>2018-07-17T05:33:58.000Z</time>
      </trkpt>
      <trkpt lat="46.67092" lon="5.56548">
        <ele>265</ele>
        <time>2018-07-17T05:33:57.000Z</time>
      </trkpt>
      <trkpt lat="46.67069" lon="5.56584">
        <ele>265</ele>
        <time>2018-07-17T05:34:11.000Z</time>
      </trkpt>
      <trkpt lat="46.67063" lon="5.56599">
        <ele>266</ele>
        <time>2018-07-17T05:34:21.000Z</time>
      </trkpt>
      <trkpt lat="46.67056" lon="5.56645">
        <ele>266</ele>
        <time>2018-07-17T05:34:30.000Z</time>
      </trkpt>
      <trkpt lat="46.67051" lon="5.56659">
        <ele>266.2</ele>
        <time>2018-07-17T05:34:40.000Z</time>
      </trkpt>
      <trkpt lat="46.67045" lon="5.5667">
        <ele>266</ele>
        <time>2018-07-17T05:34:38.000Z</time>
      </trkpt>
      <trkpt lat="46.67039" lon="5.56683">
        <ele>266.8</ele>
        <time>2018-07-17T05:34:48.000Z</time>
      </trkpt>
      <trkpt lat="46.67032" lon="5.56695">
        <ele>266</ele>
        <time>2018-07-17T05:34:47.000Z</time>
      </trkpt>
      <trkpt lat="46.67026" lon="5.5671">
        <ele>267</ele>
        <time>2018-07-17T05:34:57.000Z</time>
      </trkpt>
      <trkpt lat="46.67022" lon="5.56724">
        <ele>266</ele>
        <time>2018-07-17T05:34:59.000Z</time>
      </trkpt>
      <trkpt lat="46.67024" lon="5.56734">
        <ele>267.1</ele>
        <time>2018-07-17T05:35:09.000Z</time>
      </trkpt>
      <trkpt lat="46.6704" lon="5.56771">
        <ele>267</ele>
        <time>2018-07-17T05:35:30.000Z</time>
      </trkpt>
      <trkpt lat="46.67038" lon="5.5678">
        <ele>267.6</ele>
        <time>2018-07-17T05:35:40.000Z</time>
      </trkpt>
      <trkpt lat="46.67024" lon="5.56802">
        <ele>267</ele>
        <time>2018-07-17T05:35:44.000Z</time>
      </trkpt>
      <trkpt lat="46.67013" lon="5.56815">
        <ele>268.4</ele>
        <time>2018-07-17T05:35:54.000Z</time>
      </trkpt>
      <trkpt lat="46.67006" lon="5.56816">
        <ele>267</ele>
        <time>2018-07-17T05:35:56.000Z</time>
      </trkpt>
      <trkpt lat="46.66993" lon="5.56805">
        <ele>269</ele>
        <time>2018-07-17T05:36:06.000Z</time>
      </trkpt>
      <trkpt lat="46.66988" lon="5.56794">
        <ele>268</ele>
        <time>2018-07-17T05:36:11.000Z</time>
      </trkpt>
      <trkpt lat="46.66983" lon="5.56787">
        <ele>268.7</ele>
        <time>2018-07-17T05:36:21.000Z</time>
      </trkpt>
      <trkpt lat="46.66977" lon="5.56772">
        <ele>269</ele>
        <time>2018-07-17T05:36:24.000Z</time>
      </trkpt>
      <trkpt lat="46.66971" lon="5.56761">
        <ele>268.4</ele>
        <time>2018-07-17T05:36:34.000Z</time>
      </trkpt>
      <trkpt lat="46.66964" lon="5.56751">
        <ele>269</ele>
        <time>2018-07-17T05:36:33.000Z</time>
      </trkpt>
      <trkpt lat="46.66959" lon="5.56746">
        <ele>268.5</ele>
        <time>2018-07-17T05:36:43.000Z</time>
      </trkpt>
      <trkpt lat="46.6695" lon="5.56745">
        <ele>268.8</ele>
        <time>2018-07-17T05:36:53.000Z</time>
      </trkpt>
      <trkpt lat="46.66934" lon="5.56748">
        <ele>269</ele>
        <time>2018-07-17T05:36:47.000Z</time>
      </trkpt>
      <trkpt lat="46.66918" lon="5.56747">
        <ele>270.7</ele>
        <time>2018-07-17T05:36:57.000Z</time>
      </trkpt>
      <trkpt lat="46.66897" lon="5.56742">
        <ele>269</ele>
        <time>2018-07-17T05:37:02.000Z</time>
      </trkpt>
      <trkpt lat="46.6689" lon="5.56738">
        <ele>272.1</ele>
        <time>2018-07-17T05:37:12.000Z</time>
      </trkpt>
      <trkpt lat="46.66882" lon="5.56719">
        <ele>270</ele>
        <time>2018-07-17T05:37:11.000Z</time>
      </trkpt>
      <trkpt lat="46.66878" lon="5.56712">
        <ele>271.2</ele>
        <time>2018-07-17T05:37:21.000Z</time>
      </trkpt>
      <trkpt lat="46.66872" lon="5.56705">
        <ele>271.4</ele>
        <time>2018-07-17T05:37:31.000Z</time>
      </trkpt>
      <trkpt lat="46.66866" lon="5.56702">
        <ele>273</ele>
        <time>2018-07-17T05:37:26.000Z</time>
      </trkpt>
      <trkpt lat="46.66857" lon="5.56699">
        <ele>272.3</ele>
        <time>2018-07-17T05:37:36.000Z</time>
      </trkpt>
      <trkpt lat="46.66848" lon="5.5669">
        <ele>273</ele>
        <time>2018-07-17T05:37:45.000Z</time>
      </trkpt>
      <trkpt lat="46.66837" lon="5.56692">
        <ele>272.9</ele>
        <time>2018-07-17T05:37:55.000Z</time>
      </trkpt>
      <trkpt lat="46.66832" lon="5.56705">
        <ele>272</ele>
        <time>2018-07-17T05:37:52.000Z</time>
      </trkpt>
      <trkpt lat="46.66817" lon="5.56719">
        <ele>272.4</ele>
        <time>2018-07-17T05:38:02.000Z</time>
      </trkpt>
      <trkpt lat="46.66787" lon="5.56733">
        <ele>272</ele>
        <time>2018-07-17T05:38:15.000Z</time>
      </trkpt>
      <trkpt lat="46.6678" lon="5.56735">
        <ele>274.3</ele>
        <time>2018-07-17T05:38:25.000Z</time>
      </trkpt>
      <trkpt lat="46.66771" lon="5.56736">
        <ele>274.9</ele>
        <time>2018-07-17T05:38:35.000Z</time>
      </trkpt>
      <trkpt lat="46.66761" lon="5.56733">
        <ele>272</ele>
        <time>2018-07-17T05:38:30.000Z</time>
      </trkpt>
      <trkpt lat="46.66754" lon="5.56722">
        <ele>273</ele>
        <time>2018-07-17T05:38:40.000Z</time>
      </trkpt>
      <trkpt lat="46.66741" lon="5.56699">
        <ele>272</ele>
        <time>2018-07-17T05:38:42.000Z</time>
      </trkpt>
      <trkpt lat="46.66735" lon="5.56686">
        <ele>275.2</ele>
        <time>2018-07-17T05:38:52.000Z</time>
      </trkpt>
      <trkpt lat="46.66727" lon="5.56677">
        <ele>274</ele>
        <time>2018-07-17T05:38:52.000Z</time>
      </trkpt>
      <trkpt lat="46.66718" lon="5.56673">
        <ele>276.3</ele>
        <time>2018-07-17T05:39:02.000Z</time>
      </trkpt>
      <trkpt lat="46.6671" lon="5.56662">
        <ele>275</ele>
        <time>2018-07-17T05:39:02.000Z</time>
      </trkpt>
      <trkpt lat="46.66705" lon="5.56652">
        <ele>278</ele>
        <time>2018-07-17T05:39:12.000Z</time>
      </trkpt>
      <trkpt lat="46.66704" lon="5.56639">
        <ele>278.6</ele>
        <time>2018-07-17T05:39:22.000Z</time>
      </trkpt>
      <trkpt lat="46.66705" lon="5.56627">
        <ele>277</ele>
        <time>2018-07-17T05:39:16.000Z</time>
      </trkpt>
      <trkpt lat="46.667" lon="5.56617">
        <ele>277.9</ele>
        <time>2018-07-17T05:39:26.000Z</time>
      </trkpt>
      <trkpt lat="46.66693" lon="5.56609">
        <ele>278.1</ele>
        <time>2018-07-17T05:39:36.000Z</time>
      </trkpt>
      <trkpt lat="46.66686" lon="5.56607">
        <ele>278</ele>
        <time>2018-07-17T05:39:31.000Z</time>
      </trkpt>
      <trkpt lat="46.66657" lon="5.56607">
        <ele>280</ele>
        <time>2018-07-17T05:39:51.000Z</time>
      </trkpt>
      <trkpt lat="46.6664" lon="5.56605">
        <ele>281.3</ele>
        <time>2018-07-17T05:40:01.000Z</time>
      </trkpt>
      <trkpt lat="46.66633" lon="5.56603">
        <ele>282</ele>
        <time>2018-07-17T05:40:08.000Z</time>
      </trkpt>
      <trkpt lat="46.66627" lon="5.56597">
        <ele>281.6</ele>
        <time>2018-07-17T05:40:18.000Z</time>
      </trkpt>
      <trkpt lat="46.66622" lon="5.56589">
        <ele>281.7</ele>
        <time>2018-07-17T05:40:28.000Z</time>
      </trkpt>
      <trkpt lat="46.66614" lon="5.56578">
        <ele>282</ele>
        <time>2018-07-17T05:40:25.000Z</time>
      </trkpt>
      <trkpt lat="46.66599" lon="5.56573">
        <ele>283.4</ele>
        <time>2018-07-17T05:40:35.000Z</time>
      </trkpt>
      <trkpt lat="46.6659" lon="5.56559">
        <ele>285</ele>
        <time>2018-07-17T05:40:42.000Z</time>
      </trkpt>
      <trkpt lat="46.66585" lon="5.56543">
        <ele>284.4</ele>
        <time>2018-07-17T05:40:52.000Z</time>
      </trkpt>
      <trkpt lat="46.66581" lon="5.56537">
        <ele>284.6</ele>
        <time>2018-07-17T05:41:02.000Z</time>
      </trkpt>
      <trkpt lat="46.66575" lon="5.56535">
        <ele>286</ele>
        <time>2018-07-17T05:40:59.000Z</time>
      </trkpt>
      <trkpt lat="46.6657" lon="5.56535">
        <ele>285.8</ele>
        <time>2018-07-17T05:41:09.000Z</time>
      </trkpt>
      <trkpt lat="46.6655" lon="5.56558">
        <ele>286</ele>
        <time>2018-07-17T05:41:19.000Z</time>
      </trkpt>
      <trkpt lat="46.66546" lon="5.56565">
        <ele>287.5</ele>
        <time>2018-07-17T05:41:29.000Z</time>
      </trkpt>
      <trkpt lat="46.66534" lon="5.56607">
        <ele>287</ele>
        <time>2018-07-17T05:41:40.000Z</time>
      </trkpt>
      <trkpt lat="46.66531" lon="5.56619">
        <ele>288.1</ele>
        <time>2018-07-17T05:41:50.000Z</time>
      </trkpt>
      <trkpt lat="46.66528" lon="5.56651">
        <ele>290</ele>
        <time>2018-07-17T05:41:51.000Z</time>
      </trkpt>
      <trkpt lat="46.66522" lon="5.56675">
        <ele>290.6</ele>
        <time>2018-07-17T05:42:01.000Z</time>
      </trkpt>
      <trkpt lat="46.66506" lon="5.5672">
        <ele>291</ele>
        <time>2018-07-17T05:42:22.000Z</time>
      </trkpt>
      <trkpt lat="46.66502" lon="5.56729">
        <ele>292.4</ele>
        <time>2018-07-17T05:42:32.000Z</time>
      </trkpt>
      <trkpt lat="46.66495" lon="5.56748">
        <ele>292</ele>
        <time>2018-07-17T05:42:25.000Z</time>
      </trkpt>
      <trkpt lat="46.6649" lon="5.56769">
        <ele>294.1</ele>
        <time>2018-07-17T05:42:35.000Z</time>
      </trkpt>
      <trkpt lat="46.66486" lon="5.56791">
        <ele>294</ele>
        <time>2018-07-17T05:42:39.000Z</time>
      </trkpt>
      <trkpt lat="46.66486" lon="5.56803">
        <ele>296.8</ele>
        <time>2018-07-17T05:42:49.000Z</time>
      </trkpt>
      <trkpt lat="46.66487" lon="5.56812">
        <ele>297.2</ele>
        <time>2018-07-17T05:42:59.000Z</time>
      </trkpt>
      <trkpt lat="46.66485" lon="5.56843">
        <ele>297</ele>
        <time>2018-07-17T05:42:56.000Z</time>
      </trkpt>
      <trkpt lat="46.66482" lon="5.56872">
        <ele>298</ele>
        <time>2018-07-17T05:43:06.000Z</time>
      </trkpt>
      <trkpt lat="46.66482" lon="5.56888">
        <ele>299</ele>
        <time>2018-07-17T05:43:16.000Z</time>
      </trkpt>
      <trkpt lat="46.6648" lon="5.56895">
        <ele>299.8</ele>
        <time>2018-07-17T05:43:26.000Z</time>
      </trkpt>
      <trkpt lat="46.66475" lon="5.56901">
        <ele>300</ele>
        <time>2018-07-17T05:43:19.000Z</time>
      </trkpt>
      <trkpt lat="46.66469" lon="5.56905">
        <ele>301.3</ele>
        <time>2018-07-17T05:43:29.000Z</time>
      </trkpt>
      <trkpt lat="46.6645" lon="5.56911">
        <ele>301</ele>
        <time>2018-07-17T05:43:39.000Z</time>
      </trkpt>
      <trkpt lat="46.66433" lon="5.56914">
        <ele>302.2</ele>
        <time>2018-07-17T05:43:49.000Z</time>
      </trkpt>
      <trkpt lat="46.66426" lon="5.56912">
        <ele>302</ele>
        <time>2018-07-17T05:43:54.000Z</time>
      </trkpt>
      <trkpt lat="46.66419" lon="5.56906">
        <ele>302.1</ele>
        <time>2018-07-17T05:44:04.000Z</time>
      </trkpt>
      <trkpt lat="46.66411" lon="5.56901">
        <ele>303</ele>
        <time>2018-07-17T05:44:14.000Z</time>
      </trkpt>
      <trkpt lat="46.66403" lon="5.56895">
        <ele>303</ele>
        <time>2018-07-17T05:44:10.000Z</time>
      </trkpt>
      <trkpt lat="46.66389" lon="5.56865">
        <ele>305</ele>
        <time>2018-07-17T05:44:20.000Z</time>
      </trkpt>
      <trkpt lat="46.66384" lon="5.56857">
        <ele>306.6</ele>
        <time>2018-07-17T05:44:30.000Z</time>
      </trkpt>
      <trkpt lat="46.66378" lon="5.56851">
        <ele>307.3</ele>
        <time>2018-07-17T05:44:40.000Z</time>
      </trkpt>
      <trkpt lat="46.66372" lon="5.56847">
        <ele>307</ele>
        <time>2018-07-17T05:44:32.000Z</time>
      </trkpt>
      <trkpt lat="46.66364" lon="5.56846">
        <ele>309.7</ele>
        <time>2018-07-17T05:44:42.000Z</time>
      </trkpt>
      <trkpt lat="46.66355" lon="5.56851">
        <ele>311.9</ele>
        <time>2018-07-17T05:44:52.000Z</time>
      </trkpt>
      <trkpt lat="46.66345" lon="5.56853">
        <ele>311</ele>
        <time>2018-07-17T05:44:53.000Z</time>
      </trkpt>
      <trkpt lat="46.66325" lon="5.5685">
        <ele>315</ele>
        <time>2018-07-17T05:45:13.000Z</time>
      </trkpt>
      <trkpt lat="46.66314" lon="5.56846">
        <ele>317.7</ele>
        <time>2018-07-17T05:45:23.000Z</time>
      </trkpt>
      <trkpt lat="46.66283" lon="5.56829">
        <ele>321</ele>
        <time>2018-07-17T05:45:44.000Z</time>
      </trkpt>
      <trkpt lat="46.66274" lon="5.56826">
        <ele>323.7</ele>
        <time>2018-07-17T05:45:54.000Z</time>
      </trkpt>
      <trkpt lat="46.66267" lon="5.5682">
        <ele>325</ele>
        <time>2018-07-17T05:46:04.000Z</time>
      </trkpt>
      <trkpt lat="46.66245" lon="5.56808">
        <ele>329</ele>
        <time>2018-07-17T05:46:19.000Z</time>
      </trkpt>
      <trkpt lat="46.66231" lon="5.56797">
        <ele>332.5</ele>
        <time>2018-07-17T05:46:29.000Z</time>
      </trkpt>
      <trkpt lat="46.66226" lon="5.56788">
        <ele>334</ele>
        <time>2018-07-17T05:46:35.000Z</time>
      </trkpt>
      <trkpt lat="46.66214" lon="5.5675">
        <ele>337</ele>
        <time>2018-07-17T05:46:51.000Z</time>
      </trkpt>
      <trkpt lat="46.66212" lon="5.56735">
        <ele>336.4</ele>
        <time>2018-07-17T05:47:01.000Z</time>
      </trkpt>
      <trkpt lat="46.66215" lon="5.56724">
        <ele>338</ele>
        <time>2018-07-17T05:47:02.000Z</time>
      </trkpt>
      <trkpt lat="46.66222" lon="5.56713">
        <ele>335.7</ele>
        <time>2018-07-17T05:47:12.000Z</time>
      </trkpt>
      <trkpt lat="46.66226" lon="5.567">
        <ele>339</ele>
        <time>2018-07-17T05:47:15.000Z</time>
      </trkpt>
      <trkpt lat="46.66222" lon="5.56686">
        <ele>340.6</ele>
        <time>2018-07-17T05:47:25.000Z</time>
      </trkpt>
      <trkpt lat="46.66215" lon="5.56672">
        <ele>346</ele>
        <time>2018-07-17T05:47:35.000Z</time>
      </trkpt>
      <trkpt lat="46.66214" lon="5.56657">
        <ele>346.9</ele>
        <time>2018-07-17T05:47:45.000Z</time>
      </trkpt>
      <trkpt lat="46.66204" lon="5.56652">
        <ele>350</ele>
        <time>2018-07-17T05:47:56.000Z</time>
      </trkpt>
      <trkpt lat="46.66194" lon="5.5665">
        <ele>351.7</ele>
        <time>2018-07-17T05:48:06.000Z</time>
      </trkpt>
      <trkpt lat="46.66184" lon="5.5665">
        <ele>355</ele>
        <time>2018-07-17T05:48:17.000Z</time>
      </trkpt>
      <trkpt lat="46.66175" lon="5.56648">
        <ele>356.1</ele>
        <time>2018-07-17T05:48:27.000Z</time>
      </trkpt>
      <trkpt lat="46.66155" lon="5.56649">
        <ele>361</ele>
        <time>2018-07-17T05:48:46.000Z</time>
      </trkpt>
      <trkpt lat="46.66126" lon="5.56642">
        <ele>370</ele>
        <time>2018-07-17T05:49:11.000Z</time>
      </trkpt>
      <trkpt lat="46.66116" lon="5.56637">
        <ele>370.8</ele>
        <time>2018-07-17T05:49:21.000Z</time>
      </trkpt>
      <trkpt lat="46.66108" lon="5.56629">
        <ele>375</ele>
        <time>2018-07-17T05:49:35.000Z</time>
      </trkpt>
      <trkpt lat="46.66101" lon="5.5662">
        <ele>376.2</ele>
        <time>2018-07-17T05:49:45.000Z</time>
      </trkpt>
      <trkpt lat="46.66097" lon="5.56609">
        <ele>378.2</ele>
        <time>2018-07-17T05:49:55.000Z</time>
      </trkpt>
      <trkpt lat="46.66099" lon="5.56594">
        <ele>377</ele>
        <time>2018-07-17T05:49:58.000Z</time>
      </trkpt>
      <trkpt lat="46.66104" lon="5.56581">
        <ele>378.2</ele>
        <time>2018-07-17T05:50:08.000Z</time>
      </trkpt>
      <trkpt lat="46.66105" lon="5.56565">
        <ele>380</ele>
        <time>2018-07-17T05:50:09.000Z</time>
      </trkpt>
      <trkpt lat="46.66109" lon="5.56549">
        <ele>379.2</ele>
        <time>2018-07-17T05:50:19.000Z</time>
      </trkpt>
      <trkpt lat="46.66109" lon="5.56533">
        <ele>382</ele>
        <time>2018-07-17T05:50:20.000Z</time>
      </trkpt>
      <trkpt lat="46.66102" lon="5.56525">
        <ele>383.6</ele>
        <time>2018-07-17T05:50:30.000Z</time>
      </trkpt>
      <trkpt lat="46.66092" lon="5.56529">
        <ele>387</ele>
        <time>2018-07-17T05:50:37.000Z</time>
      </trkpt>
      <trkpt lat="46.66087" lon="5.56533">
        <ele>388.1</ele>
        <time>2018-07-17T05:50:47.000Z</time>
      </trkpt>
      <trkpt lat="46.66081" lon="5.56539">
        <ele>389.8</ele>
        <time>2018-07-17T05:50:57.000Z</time>
      </trkpt>
      <trkpt lat="46.66065" lon="5.56566">
        <ele>394</ele>
        <time>2018-07-17T05:51:11.000Z</time>
      </trkpt>
      <trkpt lat="46.66058" lon="5.56591">
        <ele>393</ele>
        <time>2018-07-17T05:51:24.000Z</time>
      </trkpt>
      <trkpt lat="46.66054" lon="5.56613">
        <ele>390.2</ele>
        <time>2018-07-17T05:51:34.000Z</time>
      </trkpt>
      <trkpt lat="46.66047" lon="5.56623">
        <ele>393</ele>
        <time>2018-07-17T05:51:42.000Z</time>
      </trkpt>
      <trkpt lat="46.6604" lon="5.56643">
        <ele>392</ele>
        <time>2018-07-17T05:51:52.000Z</time>
      </trkpt>
      <trkpt lat="46.66032" lon="5.56655">
        <ele>395</ele>
        <time>2018-07-17T05:52:01.000Z</time>
      </trkpt>
      <trkpt lat="46.6602" lon="5.56678">
        <ele>398</ele>
        <time>2018-07-17T05:52:14.000Z</time>
      </trkpt>
      <trkpt lat="46.66016" lon="5.56689">
        <ele>398</ele>
        <time>2018-07-17T05:52:24.000Z</time>
      </trkpt>
      <trkpt lat="46.66014" lon="5.56701">
        <ele>399.8</ele>
        <time>2018-07-17T05:52:34.000Z</time>
      </trkpt>
      <trkpt lat="46.66011" lon="5.56713">
        <ele>403</ele>
        <time>2018-07-17T05:52:36.000Z</time>
      </trkpt>
      <trkpt lat="46.66009" lon="5.56726">
        <ele>405.3</ele>
        <time>2018-07-17T05:52:46.000Z</time>
      </trkpt>
      <trkpt lat="46.66006" lon="5.56736">
        <ele>407.4</ele>
        <time>2018-07-17T05:52:56.000Z</time>
      </trkpt>
      <trkpt lat="46.66003" lon="5.56749">
        <ele>411</ele>
        <time>2018-07-17T05:52:55.000Z</time>
      </trkpt>
      <trkpt lat="46.65999" lon="5.5676">
        <ele>410.6</ele>
        <time>2018-07-17T05:53:05.000Z</time>
      </trkpt>
      <trkpt lat="46.65992" lon="5.56775">
        <ele>413</ele>
        <time>2018-07-17T05:53:11.000Z</time>
      </trkpt>
      <trkpt lat="46.6599" lon="5.56783">
        <ele>411.5</ele>
        <time>2018-07-17T05:53:21.000Z</time>
      </trkpt>
      <trkpt lat="46.65976" lon="5.56805">
        <ele>413</ele>
        <time>2018-07-17T05:53:32.000Z</time>
      </trkpt>
      <trkpt lat="46.65975" lon="5.56808">
        <ele>415.9</ele>
        <time>2018-07-17T05:53:42.000Z</time>
      </trkpt>
      <trkpt lat="46.65975" lon="5.56812">
        <ele>416</ele>
        <time>2018-07-17T05:53:52.000Z</time>
      </trkpt>
      <trkpt lat="46.65978" lon="5.56823">
        <ele>415.2</ele>
        <time>2018-07-17T05:54:02.000Z</time>
      </trkpt>
      <trkpt lat="46.65981" lon="5.56831">
        <ele>412</ele>
        <time>2018-07-17T05:53:47.000Z</time>
      </trkpt>
      <trkpt lat="46.65996" lon="5.5685">
        <ele>412</ele>
        <time>2018-07-17T05:53:57.000Z</time>
      </trkpt>
      <trkpt lat="46.65999" lon="5.56859">
        <ele>415.7</ele>
        <time>2018-07-17T05:54:07.000Z</time>
      </trkpt>
      <trkpt lat="46.65999" lon="5.56868">
        <ele>417.1</ele>
        <time>2018-07-17T05:54:17.000Z</time>
      </trkpt>
      <trkpt lat="46.65997" lon="5.56886">
        <ele>418</ele>
        <time>2018-07-17T05:54:15.000Z</time>
      </trkpt>
      <trkpt lat="46.65998" lon="5.56893">
        <ele>420.3</ele>
        <time>2018-07-17T05:54:25.000Z</time>
      </trkpt>
      <trkpt lat="46.65998" lon="5.56901">
        <ele>420.5</ele>
        <time>2018-07-17T05:54:35.000Z</time>
      </trkpt>
      <trkpt lat="46.65997" lon="5.56908">
        <ele>420.8</ele>
        <time>2018-07-17T05:54:45.000Z</time>
      </trkpt>
      <trkpt lat="46.65995" lon="5.56914">
        <ele>422</ele>
        <time>2018-07-17T05:54:29.000Z</time>
      </trkpt>
      <trkpt lat="46.65992" lon="5.56917">
        <ele>421.3</ele>
        <time>2018-07-17T05:54:39.000Z</time>
      </trkpt>
      <trkpt lat="46.65981" lon="5.56917">
        <ele>421.7</ele>
        <time>2018-07-17T05:54:49.000Z</time>
      </trkpt>
      <trkpt lat="46.65967" lon="5.56932">
        <ele>422</ele>
        <time>2018-07-17T05:55:04.000Z</time>
      </trkpt>
      <trkpt lat="46.65961" lon="5.56933">
        <ele>422.1</ele>
        <time>2018-07-17T05:55:14.000Z</time>
      </trkpt>
      <trkpt lat="46.65956" lon="5.5693">
        <ele>422.4</ele>
        <time>2018-07-17T05:55:24.000Z</time>
      </trkpt>
      <trkpt lat="46.65951" lon="5.5692">
        <ele>422</ele>
        <time>2018-07-17T05:55:09.000Z</time>
      </trkpt>
      <trkpt lat="46.65947" lon="5.56915">
        <ele>422.9</ele>
        <time>2018-07-17T05:55:19.000Z</time>
      </trkpt>
      <trkpt lat="46.65941" lon="5.56905">
        <ele>423.1</ele>
        <time>2018-07-17T05:55:29.000Z</time>
      </trkpt>
      <trkpt lat="46.65931" lon="5.56892">
        <ele>423</ele>
        <time>2018-07-17T05:55:33.000Z</time>
      </trkpt>
      <trkpt lat="46.65925" lon="5.56888">
        <ele>423.7</ele>
        <time>2018-07-17T05:55:43.000Z</time>
      </trkpt>
      <trkpt lat="46.65919" lon="5.56887">
        <ele>423.9</ele>
        <time>2018-07-17T05:55:53.000Z</time>
      </trkpt>
      <trkpt lat="46.65911" lon="5.56892">
        <ele>424</ele>
        <time>2018-07-17T05:55:42.000Z</time>
      </trkpt>
      <trkpt lat="46.65904" lon="5.56904">
        <ele>424.5</ele>
        <time>2018-07-17T05:55:52.000Z</time>
      </trkpt>
      <trkpt lat="46.65908" lon="5.56916">
        <ele>424</ele>
        <time>2018-07-17T05:55:44.000Z</time>
      </trkpt>
      <trkpt lat="46.65923" lon="5.5694">
        <ele>424</ele>
        <time>2018-07-17T05:55:47.000Z</time>
      </trkpt>
      <trkpt lat="46.65927" lon="5.56948">
        <ele>424.3</ele>
        <time>2018-07-17T05:55:57.000Z</time>
      </trkpt>
      <trkpt lat="46.6593" lon="5.56955">
        <ele>424</ele>
        <time>2018-07-17T05:56:07.000Z</time>
      </trkpt>
      <trkpt lat="46.65932" lon="5.56964">
        <ele>424</ele>
        <time>2018-07-17T05:55:55.000Z</time>
      </trkpt>
      <trkpt lat="46.65933" lon="5.56975">
        <ele>423.9</ele>
        <time>2018-07-17T05:56:05.000Z</time>
      </trkpt>
      <trkpt lat="46.65931" lon="5.56981">
        <ele>424.3</ele>
        <time>2018-07-17T05:56:15.000Z</time>
      </trkpt>
      <trkpt lat="46.65927" lon="5.5699">
        <ele>425</ele>
        <time>2018-07-17T05:56:03.000Z</time>
      </trkpt>
      <trkpt lat="46.65929" lon="5.57">
        <ele>425.1</ele>
        <time>2018-07-17T05:56:13.000Z</time>
      </trkpt>
      <trkpt lat="46.65928" lon="5.5701">
        <ele>424.7</ele>
        <time>2018-07-17T05:56:23.000Z</time>
      </trkpt>
      <trkpt lat="46.65923" lon="5.57016">
        <ele>426</ele>
        <time>2018-07-17T05:56:13.000Z</time>
      </trkpt>
      <trkpt lat="46.65916" lon="5.57019">
        <ele>425.3</ele>
        <time>2018-07-17T05:56:23.000Z</time>
      </trkpt>
      <trkpt lat="46.6591" lon="5.57015">
        <ele>425.7</ele>
        <time>2018-07-17T05:56:33.000Z</time>
      </trkpt>
      <trkpt lat="46.65905" lon="5.57007">
        <ele>426</ele>
        <time>2018-07-17T05:56:22.000Z</time>
      </trkpt>
      <trkpt lat="46.65897" lon="5.57001">
        <ele>426.7</ele>
        <time>2018-07-17T05:56:32.000Z</time>
      </trkpt>
      <trkpt lat="46.65891" lon="5.57006">
        <ele>426.7</ele>
        <time>2018-07-17T05:56:42.000Z</time>
      </trkpt>
      <trkpt lat="46.65886" lon="5.57024">
        <ele>426</ele>
        <time>2018-07-17T05:56:47.000Z</time>
      </trkpt>
      <trkpt lat="46.65886" lon="5.57035">
        <ele>425.4</ele>
        <time>2018-07-17T05:56:57.000Z</time>
      </trkpt>
      <trkpt lat="46.65878" lon="5.57058">
        <ele>425</ele>
        <time>2018-07-17T05:56:59.000Z</time>
      </trkpt>
      <trkpt lat="46.65874" lon="5.57062">
        <ele>422.9</ele>
        <time>2018-07-17T05:57:09.000Z</time>
      </trkpt>
      <trkpt lat="46.65869" lon="5.57065">
        <ele>422.7</ele>
        <time>2018-07-17T05:57:19.000Z</time>
      </trkpt>
      <trkpt lat="46.65864" lon="5.57066">
        <ele>422.9</ele>
        <time>2018-07-17T05:57:29.000Z</time>
      </trkpt>
      <trkpt lat="46.65851" lon="5.57066">
        <ele>425</ele>
        <time>2018-07-17T05:57:10.000Z</time>
      </trkpt>
      <trkpt lat="46.65838" lon="5.57069">
        <ele>424.2</ele>
        <time>2018-07-17T05:57:20.000Z</time>
      </trkpt>
      <trkpt lat="46.65801" lon="5.5709">
        <ele>426</ele>
        <time>2018-07-17T05:57:33.000Z</time>
      </trkpt>
      <trkpt lat="46.65773" lon="5.57103">
        <ele>427</ele>
        <time>2018-07-17T05:57:46.000Z</time>
      </trkpt>
      <trkpt lat="46.6576" lon="5.5711">
        <ele>427.7</ele>
        <time>2018-07-17T05:57:56.000Z</time>
      </trkpt>
      <trkpt lat="46.65744" lon="5.57122">
        <ele>428</ele>
        <time>2018-07-17T05:58:00.000Z</time>
      </trkpt>
      <trkpt lat="46.65737" lon="5.57126">
        <ele>428.5</ele>
        <time>2018-07-17T05:58:10.000Z</time>
      </trkpt>
      <trkpt lat="46.65725" lon="5.5713">
        <ele>428</ele>
        <time>2018-07-17T05:58:09.000Z</time>
      </trkpt>
      <trkpt lat="46.65691" lon="5.57128">
        <ele>427</ele>
        <time>2018-07-17T05:58:24.000Z</time>
      </trkpt>
      <trkpt lat="46.65685" lon="5.57131">
        <ele>426.8</ele>
        <time>2018-07-17T05:58:34.000Z</time>
      </trkpt>
      <trkpt lat="46.65683" lon="5.57151">
        <ele>427</ele>
        <time>2018-07-17T05:58:34.000Z</time>
      </trkpt>
      <trkpt lat="46.65684" lon="5.57178">
        <ele>427</ele>
        <time>2018-07-17T05:58:44.000Z</time>
      </trkpt>
      <trkpt lat="46.65683" lon="5.57188">
        <ele>423.9</ele>
        <time>2018-07-17T05:58:54.000Z</time>
      </trkpt>
      <trkpt lat="46.65684" lon="5.57193">
        <ele>423.4</ele>
        <time>2018-07-17T05:59:04.000Z</time>
      </trkpt>
      <trkpt lat="46.65683" lon="5.57201">
        <ele>422.9</ele>
        <time>2018-07-17T05:59:14.000Z</time>
      </trkpt>
      <trkpt lat="46.65683" lon="5.57217">
        <ele>423</ele>
        <time>2018-07-17T05:59:05.000Z</time>
      </trkpt>
      <trkpt lat="46.65681" lon="5.57249">
        <ele>425</ele>
        <time>2018-07-17T05:59:15.000Z</time>
      </trkpt>
      <trkpt lat="46.65681" lon="5.57257">
        <ele>422.2</ele>
        <time>2018-07-17T05:59:25.000Z</time>
      </trkpt>
      <trkpt lat="46.65675" lon="5.57281">
        <ele>427</ele>
        <time>2018-07-17T05:59:24.000Z</time>
      </trkpt>
      <trkpt lat="46.65668" lon="5.57292">
        <ele>425.6</ele>
        <time>2018-07-17T05:59:34.000Z</time>
      </trkpt>
      <trkpt lat="46.65664" lon="5.57296">
        <ele>425.9</ele>
        <time>2018-07-17T05:59:44.000Z</time>
      </trkpt>
      <trkpt lat="46.65653" lon="5.57304">
        <ele>428</ele>
        <time>2018-07-17T05:59:42.000Z</time>
      </trkpt>
      <trkpt lat="46.65641" lon="5.57309">
        <ele>428.9</ele>
        <time>2018-07-17T05:59:52.000Z</time>
      </trkpt>
      <trkpt lat="46.6564" lon="5.57316">
        <ele>429.6</ele>
        <time>2018-07-17T06:00:02.000Z</time>
      </trkpt>
      <trkpt lat="46.65644" lon="5.57322">
        <ele>426</ele>
        <time>2018-07-17T06:00:02.000Z</time>
      </trkpt>
      <trkpt lat="46.6565" lon="5.57323">
        <ele>428.4</ele>
        <time>2018-07-17T06:00:12.000Z</time>
      </trkpt>
      <trkpt lat="46.65674" lon="5.57333">
        <ele>425</ele>
        <time>2018-07-17T06:00:17.000Z</time>
      </trkpt>
      <trkpt lat="46.65692" lon="5.57344">
        <ele>421</ele>
        <time>2018-07-17T06:00:26.000Z</time>
      </trkpt>
      <trkpt lat="46.65702" lon="5.57347">
        <ele>419.3</ele>
        <time>2018-07-17T06:00:36.000Z</time>
      </trkpt>
      <trkpt lat="46.6571" lon="5.57354">
        <ele>420</ele>
        <time>2018-07-17T06:00:33.000Z</time>
      </trkpt>
      <trkpt lat="46.65719" lon="5.57367">
        <ele>418.1</ele>
        <time>2018-07-17T06:00:43.000Z</time>
      </trkpt>
      <trkpt lat="46.65723" lon="5.57382">
        <ele>418</ele>
        <time>2018-07-17T06:00:41.000Z</time>
      </trkpt>
      <trkpt lat="46.65725" lon="5.57398">
        <ele>417.6</ele>
        <time>2018-07-17T06:00:51.000Z</time>
      </trkpt>
      <trkpt lat="46.65723" lon="5.57444">
        <ele>417</ele>
        <time>2018-07-17T06:01:04.000Z</time>
      </trkpt>
      <trkpt lat="46.65723" lon="5.5746">
        <ele>416.2</ele>
        <time>2018-07-17T06:01:14.000Z</time>
      </trkpt>
      <trkpt lat="46.65725" lon="5.57475">
        <ele>417</ele>
        <time>2018-07-17T06:01:14.000Z</time>
      </trkpt>
      <trkpt lat="46.65727" lon="5.57509">
        <ele>416</ele>
        <time>2018-07-17T06:01:19.000Z</time>
      </trkpt>
      <trkpt lat="46.65725" lon="5.57557">
        <ele>412</ele>
        <time>2018-07-17T06:01:38.000Z</time>
      </trkpt>
      <trkpt lat="46.65728" lon="5.57575">
        <ele>408.9</ele>
        <time>2018-07-17T06:01:48.000Z</time>
      </trkpt>
      <trkpt lat="46.65728" lon="5.57591">
        <ele>412</ele>
        <time>2018-07-17T06:01:47.000Z</time>
      </trkpt>
      <trkpt lat="46.6572" lon="5.57618">
        <ele>412</ele>
        <time>2018-07-17T06:01:48.000Z</time>
      </trkpt>
      <trkpt lat="46.65718" lon="5.5763">
        <ele>408.5</ele>
        <time>2018-07-17T06:01:58.000Z</time>
      </trkpt>
      <trkpt lat="46.65717" lon="5.57643">
        <ele>407.4</ele>
        <time>2018-07-17T06:02:08.000Z</time>
      </trkpt>
      <trkpt lat="46.6571" lon="5.57692">
        <ele>406</ele>
        <time>2018-07-17T06:02:15.000Z</time>
      </trkpt>
      <trkpt lat="46.65706" lon="5.57706">
        <ele>401.8</ele>
        <time>2018-07-17T06:02:25.000Z</time>
      </trkpt>
      <trkpt lat="46.65689" lon="5.57729">
        <ele>406</ele>
        <time>2018-07-17T06:02:23.000Z</time>
      </trkpt>
      <trkpt lat="46.65687" lon="5.57744">
        <ele>402.1</ele>
        <time>2018-07-17T06:02:33.000Z</time>
      </trkpt>
      <trkpt lat="46.65681" lon="5.5776">
        <ele>404</ele>
        <time>2018-07-17T06:02:32.000Z</time>
      </trkpt>
      <trkpt lat="46.65678" lon="5.57774">
        <ele>401.3</ele>
        <time>2018-07-17T06:02:42.000Z</time>
      </trkpt>
      <trkpt lat="46.65677" lon="5.57789">
        <ele>403</ele>
        <time>2018-07-17T06:02:41.000Z</time>
      </trkpt>
      <trkpt lat="46.65678" lon="5.57805">
        <ele>399.5</ele>
        <time>2018-07-17T06:02:51.000Z</time>
      </trkpt>
      <trkpt lat="46.65677" lon="5.57821">
        <ele>404</ele>
        <time>2018-07-17T06:02:51.000Z</time>
      </trkpt>
      <trkpt lat="46.65674" lon="5.57837">
        <ele>401.1</ele>
        <time>2018-07-17T06:03:01.000Z</time>
      </trkpt>
      <trkpt lat="46.65664" lon="5.57865">
        <ele>405</ele>
        <time>2018-07-17T06:03:07.000Z</time>
      </trkpt>
      <trkpt lat="46.65662" lon="5.57879">
        <ele>404.8</ele>
        <time>2018-07-17T06:03:17.000Z</time>
      </trkpt>
      <trkpt lat="46.65658" lon="5.57894">
        <ele>406</ele>
        <time>2018-07-17T06:03:19.000Z</time>
      </trkpt>
      <trkpt lat="46.65651" lon="5.57906">
        <ele>405.6</ele>
        <time>2018-07-17T06:03:29.000Z</time>
      </trkpt>
      <trkpt lat="46.65646" lon="5.57919">
        <ele>404</ele>
        <time>2018-07-17T06:03:31.000Z</time>
      </trkpt>
      <trkpt lat="46.65641" lon="5.57935">
        <ele>403.3</ele>
        <time>2018-07-17T06:03:41.000Z</time>
      </trkpt>
      <trkpt lat="46.65634" lon="5.57946">
        <ele>403</ele>
        <time>2018-07-17T06:03:47.000Z</time>
      </trkpt>
      <trkpt lat="46.65628" lon="5.57959">
        <ele>401.3</ele>
        <time>2018-07-17T06:03:57.000Z</time>
      </trkpt>
      <trkpt lat="46.65627" lon="5.57974">
        <ele>400</ele>
        <time>2018-07-17T06:03:58.000Z</time>
      </trkpt>
      <trkpt lat="46.65627" lon="5.57989">
        <ele>395.7</ele>
        <time>2018-07-17T06:04:08.000Z</time>
      </trkpt>
      <trkpt lat="46.65626" lon="5.58003">
        <ele>400</ele>
        <time>2018-07-17T06:04:10.000Z</time>
      </trkpt>
      <trkpt lat="46.65616" lon="5.58027">
        <ele>400</ele>
        <time>2018-07-17T06:04:20.000Z</time>
      </trkpt>
      <trkpt lat="46.65614" lon="5.58041">
        <ele>393.8</ele>
        <time>2018-07-17T06:04:30.000Z</time>
      </trkpt>
      <trkpt lat="46.65609" lon="5.58052">
        <ele>400</ele>
        <time>2018-07-17T06:04:33.000Z</time>
      </trkpt>
      <trkpt lat="46.65601" lon="5.58062">
        <ele>395</ele>
        <time>2018-07-17T06:04:43.000Z</time>
      </trkpt>
      <trkpt lat="46.65595" lon="5.58074">
        <ele>398</ele>
        <time>2018-07-17T06:04:43.000Z</time>
      </trkpt>
      <trkpt lat="46.6559" lon="5.58086">
        <ele>394.4</ele>
        <time>2018-07-17T06:04:53.000Z</time>
      </trkpt>
      <trkpt lat="46.65591" lon="5.581">
        <ele>392</ele>
        <time>2018-07-17T06:04:55.000Z</time>
      </trkpt>
      <trkpt lat="46.65597" lon="5.58112">
        <ele>390</ele>
        <time>2018-07-17T06:05:05.000Z</time>
      </trkpt>
      <trkpt lat="46.65613" lon="5.5813">
        <ele>387</ele>
        <time>2018-07-17T06:05:14.000Z</time>
      </trkpt>
      <trkpt lat="46.65617" lon="5.58146">
        <ele>382</ele>
        <time>2018-07-17T06:05:24.000Z</time>
      </trkpt>
      <trkpt lat="46.65621" lon="5.58181">
        <ele>377</ele>
        <time>2018-07-17T06:05:24.000Z</time>
      </trkpt>
      <trkpt lat="46.65624" lon="5.58196">
        <ele>374.9</ele>
        <time>2018-07-17T06:05:34.000Z</time>
      </trkpt>
      <trkpt lat="46.65628" lon="5.58212">
        <ele>376</ele>
        <time>2018-07-17T06:05:32.000Z</time>
      </trkpt>
      <trkpt lat="46.65638" lon="5.58246">
        <ele>372</ele>
        <time>2018-07-17T06:05:41.000Z</time>
      </trkpt>
      <trkpt lat="46.65636" lon="5.58261">
        <ele>368.9</ele>
        <time>2018-07-17T06:05:51.000Z</time>
      </trkpt>
      <trkpt lat="46.6563" lon="5.58273">
        <ele>371</ele>
        <time>2018-07-17T06:05:48.000Z</time>
      </trkpt>
      <trkpt lat="46.65606" lon="5.58305">
        <ele>368</ele>
        <time>2018-07-17T06:06:05.000Z</time>
      </trkpt>
      <trkpt lat="46.65599" lon="5.58316">
        <ele>365.4</ele>
        <time>2018-07-17T06:06:15.000Z</time>
      </trkpt>
      <trkpt lat="46.65593" lon="5.58328">
        <ele>367</ele>
        <time>2018-07-17T06:06:13.000Z</time>
      </trkpt>
      <trkpt lat="46.65571" lon="5.5836">
        <ele>367</ele>
        <time>2018-07-17T06:06:33.000Z</time>
      </trkpt>
      <trkpt lat="46.65559" lon="5.5838">
        <ele>366.1</ele>
        <time>2018-07-17T06:06:43.000Z</time>
      </trkpt>
      <trkpt lat="46.65555" lon="5.58391">
        <ele>367</ele>
        <time>2018-07-17T06:07:01.000Z</time>
      </trkpt>
      <trkpt lat="46.65543" lon="5.58412">
        <ele>366</ele>
        <time>2018-07-17T06:07:13.000Z</time>
      </trkpt>
      <trkpt lat="46.65538" lon="5.58423">
        <ele>364.3</ele>
        <time>2018-07-17T06:07:23.000Z</time>
      </trkpt>
      <trkpt lat="46.65531" lon="5.58434">
        <ele>363</ele>
        <time>2018-07-17T06:07:28.000Z</time>
      </trkpt>
      <trkpt lat="46.65522" lon="5.58446">
        <ele>363.6</ele>
        <time>2018-07-17T06:07:38.000Z</time>
      </trkpt>
      <trkpt lat="46.6552" lon="5.58462">
        <ele>363</ele>
        <time>2018-07-17T06:07:38.000Z</time>
      </trkpt>
      <trkpt lat="46.65524" lon="5.58491">
        <ele>363</ele>
        <time>2018-07-17T06:07:53.000Z</time>
      </trkpt>
      <trkpt lat="46.65527" lon="5.58505">
        <ele>361.8</ele>
        <time>2018-07-17T06:08:03.000Z</time>
      </trkpt>
      <trkpt lat="46.6553" lon="5.58536">
        <ele>363</ele>
        <time>2018-07-17T06:08:06.000Z</time>
      </trkpt>
      <trkpt lat="46.65535" lon="5.58552">
        <ele>357.2</ele>
        <time>2018-07-17T06:08:16.000Z</time>
      </trkpt>
      <trkpt lat="46.65552" lon="5.58593">
        <ele>353</ele>
        <time>2018-07-17T06:08:25.000Z</time>
      </trkpt>
      <trkpt lat="46.65559" lon="5.5862">
        <ele>353</ele>
        <time>2018-07-17T06:08:42.000Z</time>
      </trkpt>
      <trkpt lat="46.65563" lon="5.58633">
        <ele>348.9</ele>
        <time>2018-07-17T06:08:52.000Z</time>
      </trkpt>
      <trkpt lat="46.65573" lon="5.5866">
        <ele>345</ele>
        <time>2018-07-17T06:09:02.000Z</time>
      </trkpt>
      <trkpt lat="46.65577" lon="5.58674">
        <ele>342.3</ele>
        <time>2018-07-17T06:09:12.000Z</time>
      </trkpt>
      <trkpt lat="46.65579" lon="5.58688">
        <ele>343</ele>
        <time>2018-07-17T06:09:15.000Z</time>
      </trkpt>
      <trkpt lat="46.65587" lon="5.58718">
        <ele>337</ele>
        <time>2018-07-17T06:09:28.000Z</time>
      </trkpt>
      <trkpt lat="46.6559" lon="5.58733">
        <ele>332.6</ele>
        <time>2018-07-17T06:09:38.000Z</time>
      </trkpt>
      <trkpt lat="46.65588" lon="5.58748">
        <ele>335</ele>
        <time>2018-07-17T06:09:47.000Z</time>
      </trkpt>
      <trkpt lat="46.65589" lon="5.58764">
        <ele>328.3</ele>
        <time>2018-07-17T06:09:57.000Z</time>
      </trkpt>
      <trkpt lat="46.65594" lon="5.58777">
        <ele>328</ele>
        <time>2018-07-17T06:10:03.000Z</time>
      </trkpt>
      <trkpt lat="46.65639" lon="5.58767">
        <ele>323</ele>
        <time>2018-07-17T06:10:24.000Z</time>
      </trkpt>
      <trkpt lat="46.65649" lon="5.58768">
        <ele>320.1</ele>
        <time>2018-07-17T06:10:34.000Z</time>
      </trkpt>
      <trkpt lat="46.65657" lon="5.58772">
        <ele>319</ele>
        <time>2018-07-17T06:10:44.000Z</time>
      </trkpt>
      <trkpt lat="46.65667" lon="5.58783">
        <ele>318</ele>
        <time>2018-07-17T06:10:42.000Z</time>
      </trkpt>
      <trkpt lat="46.65682" lon="5.58791">
        <ele>316.1</ele>
        <time>2018-07-17T06:10:52.000Z</time>
      </trkpt>
      <trkpt lat="46.65712" lon="5.58816">
        <ele>314</ele>
        <time>2018-07-17T06:11:04.000Z</time>
      </trkpt>
      <trkpt lat="46.65741" lon="5.58836">
        <ele>312</ele>
        <time>2018-07-17T06:11:17.000Z</time>
      </trkpt>
      <trkpt lat="46.65745" lon="5.58851">
        <ele>312.2</ele>
        <time>2018-07-17T06:11:27.000Z</time>
      </trkpt>
      <trkpt lat="46.65745" lon="5.5886">
        <ele>312.2</ele>
        <time>2018-07-17T06:11:37.000Z</time>
      </trkpt>
      <trkpt lat="46.65739" lon="5.58879">
        <ele>312</ele>
        <time>2018-07-17T06:11:35.000Z</time>
      </trkpt>
      <trkpt lat="46.65733" lon="5.58894">
        <ele>312</ele>
        <time>2018-07-17T06:11:45.000Z</time>
      </trkpt>
      <trkpt lat="46.65725" lon="5.58923">
        <ele>312</ele>
        <time>2018-07-17T06:11:58.000Z</time>
      </trkpt>
      <trkpt lat="46.65704" lon="5.58962">
        <ele>313</ele>
        <time>2018-07-17T06:12:27.000Z</time>
      </trkpt>
      <trkpt lat="46.6568" lon="5.59001">
        <ele>314</ele>
        <time>2018-07-17T06:12:42.000Z</time>
      </trkpt>
      <trkpt lat="46.6566" lon="5.59044">
        <ele>313</ele>
        <time>2018-07-17T06:12:57.000Z</time>
      </trkpt>
      <trkpt lat="46.65658" lon="5.59054">
        <ele>314.3</ele>
        <time>2018-07-17T06:13:07.000Z</time>
      </trkpt>
      <trkpt lat="46.65661" lon="5.59063">
        <ele>313.5</ele>
        <time>2018-07-17T06:13:17.000Z</time>
      </trkpt>
      <trkpt lat="46.65668" lon="5.59077">
        <ele>313</ele>
        <time>2018-07-17T06:13:08.000Z</time>
      </trkpt>
      <trkpt lat="46.65671" lon="5.59094">
        <ele>311.3</ele>
        <time>2018-07-17T06:13:18.000Z</time>
      </trkpt>
      <trkpt lat="46.65667" lon="5.59128">
        <ele>311</ele>
        <time>2018-07-17T06:13:28.000Z</time>
      </trkpt>
      <trkpt lat="46.65665" lon="5.59164">
        <ele>311</ele>
        <time>2018-07-17T06:13:38.000Z</time>
      </trkpt>
      <trkpt lat="46.65662" lon="5.59204">
        <ele>310</ele>
        <time>2018-07-17T06:13:45.000Z</time>
      </trkpt>
      <trkpt lat="46.65659" lon="5.59221">
        <ele>310.8</ele>
        <time>2018-07-17T06:13:55.000Z</time>
      </trkpt>
      <trkpt lat="46.65657" lon="5.59252">
        <ele>310</ele>
        <time>2018-07-17T06:13:59.000Z</time>
      </trkpt>
      <trkpt lat="46.65652" lon="5.59286">
        <ele>310</ele>
        <time>2018-07-17T06:14:09.000Z</time>
      </trkpt>
      <trkpt lat="46.65638" lon="5.59346">
        <ele>310</ele>
        <time>2018-07-17T06:14:27.000Z</time>
      </trkpt>
      <trkpt lat="46.65632" lon="5.59361">
        <ele>309.7</ele>
        <time>2018-07-17T06:14:37.000Z</time>
      </trkpt>
      <trkpt lat="46.65616" lon="5.59384">
        <ele>312</ele>
        <time>2018-07-17T06:14:41.000Z</time>
      </trkpt>
      <trkpt lat="46.65603" lon="5.59409">
        <ele>312</ele>
        <time>2018-07-17T06:14:50.000Z</time>
      </trkpt>
      <trkpt lat="46.65586" lon="5.59432">
        <ele>312</ele>
        <time>2018-07-17T06:15:00.000Z</time>
      </trkpt>
      <trkpt lat="46.6557" lon="5.59457">
        <ele>313</ele>
        <time>2018-07-17T06:15:10.000Z</time>
      </trkpt>
      <trkpt lat="46.65554" lon="5.59479">
        <ele>313</ele>
        <time>2018-07-17T06:15:19.000Z</time>
      </trkpt>
      <trkpt lat="46.65538" lon="5.59503">
        <ele>313</ele>
        <time>2018-07-17T06:15:29.000Z</time>
      </trkpt>
      <trkpt lat="46.65521" lon="5.59527">
        <ele>313</ele>
        <time>2018-07-17T06:15:39.000Z</time>
      </trkpt>
      <trkpt lat="46.65515" lon="5.59541">
        <ele>312.4</ele>
        <time>2018-07-17T06:15:49.000Z</time>
      </trkpt>
      <trkpt lat="46.65499" lon="5.59565">
        <ele>313</ele>
        <time>2018-07-17T06:15:54.000Z</time>
      </trkpt>
      <trkpt lat="46.65492" lon="5.59578">
        <ele>312.6</ele>
        <time>2018-07-17T06:16:04.000Z</time>
      </trkpt>
      <trkpt lat="46.65487" lon="5.59594">
        <ele>312</ele>
        <time>2018-07-17T06:16:04.000Z</time>
      </trkpt>
      <trkpt lat="46.6548" lon="5.59607">
        <ele>310.8</ele>
        <time>2018-07-17T06:16:14.000Z</time>
      </trkpt>
      <trkpt lat="46.6547" lon="5.59619">
        <ele>312</ele>
        <time>2018-07-17T06:16:14.000Z</time>
      </trkpt>
      <trkpt lat="46.65453" lon="5.59633">
        <ele>311</ele>
        <time>2018-07-17T06:16:22.000Z</time>
      </trkpt>
      <trkpt lat="46.65443" lon="5.59643">
        <ele>311.1</ele>
        <time>2018-07-17T06:16:32.000Z</time>
      </trkpt>
      <trkpt lat="46.65435" lon="5.59654">
        <ele>311</ele>
        <time>2018-07-17T06:16:32.000Z</time>
      </trkpt>
      <trkpt lat="46.65419" lon="5.59674">
        <ele>312</ele>
        <time>2018-07-17T06:16:42.000Z</time>
      </trkpt>
      <trkpt lat="46.65407" lon="5.597">
        <ele>312</ele>
        <time>2018-07-17T06:16:52.000Z</time>
      </trkpt>
      <trkpt lat="46.65401" lon="5.59733">
        <ele>312</ele>
        <time>2018-07-17T06:17:02.000Z</time>
      </trkpt>
      <trkpt lat="46.65404" lon="5.59759">
        <ele>312.1</ele>
        <time>2018-07-17T06:17:12.000Z</time>
      </trkpt>
      <trkpt lat="46.6541" lon="5.59776">
        <ele>312</ele>
        <time>2018-07-17T06:17:22.000Z</time>
      </trkpt>
      <trkpt lat="46.65414" lon="5.59794">
        <ele>312.6</ele>
        <time>2018-07-17T06:17:32.000Z</time>
      </trkpt>
      <trkpt lat="46.65385" lon="5.59837">
        <ele>313</ele>
        <time>2018-07-17T06:17:42.000Z</time>
      </trkpt>
      <trkpt lat="46.65361" lon="5.59853">
        <ele>313</ele>
        <time>2018-07-17T06:17:52.000Z</time>
      </trkpt>
      <trkpt lat="46.65326" lon="5.59875">
        <ele>314</ele>
        <time>2018-07-17T06:18:02.000Z</time>
      </trkpt>
      <trkpt lat="46.65286" lon="5.59908">
        <ele>314</ele>
        <time>2018-07-17T06:18:12.000Z</time>
      </trkpt>
      <trkpt lat="46.65292" lon="5.59929">
        <ele>315.7</ele>
        <time>2018-07-17T06:18:22.000Z</time>
      </trkpt>
      <trkpt lat="46.65271" lon="5.59945">
        <ele>314</ele>
        <time>2018-07-17T06:18:32.000Z</time>
      </trkpt>
      <trkpt lat="46.65269" lon="5.59962">
        <ele>316.4</ele>
        <time>2018-07-17T06:18:42.000Z</time>
      </trkpt>
      <trkpt lat="46.65271" lon="5.59977">
        <ele>316</ele>
        <time>2018-07-17T06:18:52.000Z</time>
      </trkpt>
      <trkpt lat="46.65254" lon="5.60011">
        <ele>317</ele>
        <time>2018-07-17T06:19:02.000Z</time>
      </trkpt>
      <trkpt lat="46.65259" lon="5.60032">
        <ele>319.1</ele>
        <time>2018-07-17T06:19:12.000Z</time>
      </trkpt>
      <trkpt lat="46.65301" lon="5.59995">
        <ele>317</ele>
        <time>2018-07-17T06:19:22.000Z</time>
      </trkpt>
      <trkpt lat="46.65309" lon="5.60033">
        <ele>320</ele>
        <time>2018-07-17T06:19:32.000Z</time>
      </trkpt>
      <trkpt lat="46.6532" lon="5.60048">
        <ele>321.8</ele>
        <time>2018-07-17T06:19:42.000Z</time>
      </trkpt>
      <trkpt lat="46.65338" lon="5.60079">
        <ele>321</ele>
        <time>2018-07-17T06:19:52.000Z</time>
      </trkpt>
      <trkpt lat="46.6535" lon="5.60109">
        <ele>323</ele>
        <time>2018-07-17T06:20:02.000Z</time>
      </trkpt>
      <trkpt lat="46.65363" lon="5.60142">
        <ele>325</ele>
        <time>2018-07-17T06:20:12.000Z</time>
      </trkpt>
      <trkpt lat="46.65375" lon="5.60172">
        <ele>326</ele>
        <time>2018-07-17T06:20:22.000Z</time>
      </trkpt>
      <trkpt lat="46.65387" lon="5.60203">
        <ele>327</ele>
        <time>2018-07-17T06:20:32.000Z</time>
      </trkpt>
      <trkpt lat="46.65407" lon="5.60225">
        <ele>328</ele>
        <time>2018-07-17T06:20:42.000Z</time>
      </trkpt>
      <trkpt lat="46.65432" lon="5.60253">
        <ele>330</ele>
        <time>2018-07-17T06:20:52.000Z</time>
      </trkpt>
      <trkpt lat="46.65457" lon="5.60273">
        <ele>330</ele>
        <time>2018-07-17T06:21:02.000Z</time>
      </trkpt>
      <trkpt lat="46.65481" lon="5.60323">
        <ele>332</ele>
        <time>2018-07-17T06:21:12.000Z</time>
      </trkpt>
      <trkpt lat="46.65492" lon="5.60354">
        <ele>333</ele>
        <time>2018-07-17T06:21:22.000Z</time>
      </trkpt>
      <trkpt lat="46.65504" lon="5.60385">
        <ele>334</ele>
        <time>2018-07-17T06:21:32.000Z</time>
      </trkpt>
      <trkpt lat="46.65516" lon="5.60417">
        <ele>335</ele>
        <time>2018-07-17T06:21:42.000Z</time>
      </trkpt>
      <trkpt lat="46.6553" lon="5.60454">
        <ele>336</ele>
        <time>2018-07-17T06:21:52.000Z</time>
      </trkpt>
      <trkpt lat="46.65548" lon="5.60488">
        <ele>336</ele>
        <time>2018-07-17T06:22:02.000Z</time>
      </trkpt>
      <trkpt lat="46.65562" lon="5.60504">
        <ele>336.2</ele>
        <time>2018-07-17T06:22:12.000Z</time>
      </trkpt>
      <trkpt lat="46.65574" lon="5.60503">
        <ele>336</ele>
        <time>2018-07-17T06:22:22.000Z</time>
      </trkpt>
      <trkpt lat="46.65589" lon="5.60538">
        <ele>336</ele>
        <time>2018-07-17T06:22:32.000Z</time>
      </trkpt>
      <trkpt lat="46.65594" lon="5.60568">
        <ele>339</ele>
        <time>2018-07-17T06:22:42.000Z</time>
      </trkpt>
      <trkpt lat="46.65601" lon="5.6059">
        <ele>342.1</ele>
        <time>2018-07-17T06:22:52.000Z</time>
      </trkpt>
      <trkpt lat="46.65614" lon="5.60646">
        <ele>341</ele>
        <time>2018-07-17T06:23:02.000Z</time>
        <extensions>
          <visugpx:TrkExtension xmlns:visugpx="https://www.visugpx.com/editgpx/">
            <visugpx:node>1</visugpx:node>
            </visugpx:TrkExtension>
        </extensions>
      </trkpt>
      <trkpt lat="46.65613" lon="5.6066">
        <ele>348.5</ele>
      </trkpt>
      <trkpt lat="46.65609" lon="5.60682">
        <ele>350.9</ele>
      </trkpt>
      <trkpt lat="46.65604" lon="5.60703">
        <ele>353.9</ele>
      </trkpt>
      <trkpt lat="46.65599" lon="5.60723">
        <ele>356.9</ele>
      </trkpt>
      <trkpt lat="46.65593" lon="5.60745">
        <ele>359.2</ele>
      </trkpt>
      <trkpt lat="46.65588" lon="5.60769">
        <ele>359.4</ele>
      </trkpt>
      <trkpt lat="46.65584" lon="5.60789">
        <ele>361.6</ele>
      </trkpt>
      <trkpt lat="46.65578" lon="5.60811">
        <ele>364.2</ele>
      </trkpt>
      <trkpt lat="46.65581" lon="5.60818">
        <ele>363.9</ele>
      </trkpt>
      <trkpt lat="46.65579" lon="5.60867">
        <ele>370.5</ele>
      </trkpt>
      <trkpt lat="46.65578" lon="5.60924">
        <ele>379.1</ele>
      </trkpt>
      <trkpt lat="46.65567" lon="5.60988">
        <ele>386.1</ele>
      </trkpt>
      <trkpt lat="46.65547" lon="5.61039">
        <ele>393.1</ele>
      </trkpt>
      <trkpt lat="46.6552" lon="5.61122">
        <ele>406.4</ele>
      </trkpt>
      <trkpt lat="46.6551" lon="5.6118">
        <ele>417.5</ele>
      </trkpt>
      <trkpt lat="46.65512" lon="5.61216">
        <ele>425.2</ele>
      </trkpt>
      <trkpt lat="46.65524" lon="5.61236">
        <ele>432.5</ele>
      </trkpt>
      <trkpt lat="46.65522" lon="5.6127">
        <ele>440.1</ele>
      </trkpt>
      <trkpt lat="46.65518" lon="5.6129">
        <ele>443.5</ele>
      </trkpt>
      <trkpt lat="46.65516" lon="5.61295">
        <ele>444.1</ele>
        <extensions>
          <visugpx:TrkExtension xmlns:visugpx="https://www.visugpx.com/editgpx/">
            <visugpx:node>2</visugpx:node>
            </visugpx:TrkExtension>
        </extensions>
      </trkpt>
      <trkpt lat="46.65514" lon="5.61297">
        <ele>444.4</ele>
      </trkpt>
      <trkpt lat="46.65516" lon="5.61304">
        <ele>444.9</ele>
      </trkpt>
      <trkpt lat="46.65521" lon="5.61304">
        <ele>444.8</ele>
      </trkpt>
      <trkpt lat="46.65523" lon="5.61306">
        <ele>445</ele>
      </trkpt>
      <trkpt lat="46.65513" lon="5.61319">
        <ele>446.2</ele>
      </trkpt>
      <trkpt lat="46.65532" lon="5.61341">
        <ele>455</ele>
      </trkpt>
      <trkpt lat="46.65546" lon="5.61349">
        <ele>471.3</ele>
      </trkpt>
      <trkpt lat="46.65561" lon="5.61349">
        <ele>484.3</ele>
        <extensions>
          <visugpx:TrkExtension xmlns:visugpx="https://www.visugpx.com/editgpx/">
            <visugpx:node>3</visugpx:node>
            </visugpx:TrkExtension>
        </extensions>
      </trkpt>
      <trkpt lat="46.65709" lon="5.61345">
        <ele>532.1</ele>
      </trkpt>
      <trkpt lat="46.65842" lon="5.61361">
        <ele>532.7</ele>
      </trkpt>
      <trkpt lat="46.65848" lon="5.61362">
        <ele>532.4</ele>
        <extensions>
          <visugpx:TrkExtension xmlns:visugpx="https://www.visugpx.com/editgpx/">
            <visugpx:node>5</visugpx:node>
            </visugpx:TrkExtension>
        </extensions>
      </trkpt>
      <trkpt lat="46.65944" lon="5.61371">
        <ele>529.3</ele>
      </trkpt>
      <trkpt lat="46.66067" lon="5.61381">
        <ele>528.3</ele>
      </trkpt>
      <trkpt lat="46.66144" lon="5.61363">
        <ele>520.6</ele>
        <extensions>
          <visugpx:TrkExtension xmlns:visugpx="https://www.visugpx.com/editgpx/">
            <visugpx:node>6</visugpx:node>
            </visugpx:TrkExtension>
        </extensions>
      </trkpt>
      <trkpt lat="46.66159" lon="5.6136">
        <ele>518.7</ele>
      </trkpt>
      <trkpt lat="46.66233" lon="5.61311">
        <ele>484.8</ele>
      </trkpt>
      <trkpt lat="46.66267" lon="5.61275">
        <ele>454.5</ele>
      </trkpt>
      <trkpt lat="46.66287" lon="5.61241">
        <ele>429.9</ele>
      </trkpt>
      <trkpt lat="46.66293" lon="5.61232">
        <ele>428.9</ele>
      </trkpt>
      <trkpt lat="46.66309" lon="5.61194">
        <ele>423.7</ele>
      </trkpt>
      <trkpt lat="46.66317" lon="5.6116">
        <ele>417.8</ele>
        <extensions>
          <visugpx:TrkExtension xmlns:visugpx="https://www.visugpx.com/editgpx/">
            <visugpx:node>7</visugpx:node>
            </visugpx:TrkExtension>
        </extensions>
      </trkpt>
      <trkpt lat="46.66323" lon="5.61136">
        <ele>415.4</ele>
      </trkpt>
      <trkpt lat="46.66329" lon="5.61065">
        <ele>418</ele>
      </trkpt>
      <trkpt lat="46.66328" lon="5.60996">
        <ele>415.6</ele>
      </trkpt>
      <trkpt lat="46.66322" lon="5.60932">
        <ele>413.4</ele>
      </trkpt>
      <trkpt lat="46.66319" lon="5.60915">
        <ele>414</ele>
      </trkpt>
      <trkpt lat="46.66314" lon="5.60897">
        <ele>413.9</ele>
      </trkpt>
      <trkpt lat="46.6631" lon="5.6088">
        <ele>413.5</ele>
      </trkpt>
      <trkpt lat="46.663" lon="5.60849">
        <ele>413</ele>
      </trkpt>
      <trkpt lat="46.66293" lon="5.60831">
        <ele>413.2</ele>
      </trkpt>
      <trkpt lat="46.66284" lon="5.60812">
        <ele>415.1</ele>
      </trkpt>
      <trkpt lat="46.66269" lon="5.60782">
        <ele>415.2</ele>
      </trkpt>
      <trkpt lat="46.66252" lon="5.60754">
        <ele>416.1</ele>
      </trkpt>
      <trkpt lat="46.66239" lon="5.60736">
        <ele>416.9</ele>
        <extensions>
          <visugpx:TrkExtension xmlns:visugpx="https://www.visugpx.com/editgpx/">
            <visugpx:node>8</visugpx:node>
            </visugpx:TrkExtension>
        </extensions>
      </trkpt>
      <trkpt lat="46.66238" lon="5.60734">
        <ele>417.1</ele>
      </trkpt>
      <trkpt lat="46.6623" lon="5.60725">
        <ele>416.2</ele>
      </trkpt>
      <trkpt lat="46.66222" lon="5.60716">
        <ele>415.8</ele>
      </trkpt>
      <trkpt lat="46.66216" lon="5.60709">
        <ele>416.7</ele>
      </trkpt>
      <trkpt lat="46.66211" lon="5.60704">
        <ele>416.8</ele>
      </trkpt>
      <trkpt lat="46.66204" lon="5.60698">
        <ele>416.2</ele>
      </trkpt>
      <trkpt lat="46.66195" lon="5.6069">
        <ele>415.4</ele>
      </trkpt>
      <trkpt lat="46.66188" lon="5.60684">
        <ele>416</ele>
      </trkpt>
      <trkpt lat="46.66181" lon="5.60678">
        <ele>416</ele>
      </trkpt>
      <trkpt lat="46.66151" lon="5.60659">
        <ele>415</ele>
      </trkpt>
      <trkpt lat="46.6612" lon="5.6064">
        <ele>412.8</ele>
      </trkpt>
      <trkpt lat="46.66085" lon="5.60617">
        <ele>411.7</ele>
      </trkpt>
      <trkpt lat="46.66035" lon="5.60585">
        <ele>409.5</ele>
      </trkpt>
      <trkpt lat="46.65996" lon="5.60562">
        <ele>407</ele>
      </trkpt>
      <trkpt lat="46.65975" lon="5.60548">
        <ele>406.2</ele>
      </trkpt>
      <trkpt lat="46.65959" lon="5.60536">
        <ele>405.4</ele>
      </trkpt>
      <trkpt lat="46.6595" lon="5.60529">
        <ele>405.6</ele>
      </trkpt>
      <trkpt lat="46.65944" lon="5.60524">
        <ele>405.9</ele>
      </trkpt>
      <trkpt lat="46.65932" lon="5.60513">
        <ele>406</ele>
      </trkpt>
      <trkpt lat="46.65918" lon="5.60501">
        <ele>406</ele>
      </trkpt>
      <trkpt lat="46.65913" lon="5.60495">
        <ele>406.2</ele>
      </trkpt>
      <trkpt lat="46.65905" lon="5.60485">
        <ele>406.4</ele>
      </trkpt>
      <trkpt lat="46.65886" lon="5.6046">
        <ele>406.5</ele>
      </trkpt>
      <trkpt lat="46.65872" lon="5.6044">
        <ele>406.5</ele>
      </trkpt>
      <trkpt lat="46.65868" lon="5.60437">
        <ele>405.8</ele>
      </trkpt>
      <trkpt lat="46.65864" lon="5.60436">
        <ele>404.8</ele>
      </trkpt>
      <trkpt lat="46.65861" lon="5.60434">
        <ele>404.1</ele>
      </trkpt>
      <trkpt lat="46.65858" lon="5.60434">
        <ele>403.5</ele>
      </trkpt>
      <trkpt lat="46.65854" lon="5.60435">
        <ele>402.7</ele>
      </trkpt>
      <trkpt lat="46.65852" lon="5.60431">
        <ele>402.8</ele>
        <extensions>
          <visugpx:TrkExtension xmlns:visugpx="https://www.visugpx.com/editgpx/">
            <visugpx:node>9</visugpx:node>
            </visugpx:TrkExtension>
        </extensions>
      </trkpt>
      <trkpt lat="46.65831" lon="5.60397">
        <ele>404</ele>
      </trkpt>
      <trkpt lat="46.65825" lon="5.60377">
        <ele>403</ele>
      </trkpt>
      <trkpt lat="46.65821" lon="5.60357">
        <ele>402</ele>
      </trkpt>
      <trkpt lat="46.65819" lon="5.60344">
        <ele>402</ele>
        <extensions>
          <visugpx:TrkExtension xmlns:visugpx="https://www.visugpx.com/editgpx/">
            <visugpx:node>10</visugpx:node>
            </visugpx:TrkExtension>
        </extensions>
      </trkpt>
      <trkpt lat="46.65816" lon="5.60329">
        <ele>402</ele>
      </trkpt>
      <trkpt lat="46.65814" lon="5.60309">
        <ele>402.4</ele>
      </trkpt>
      <trkpt lat="46.6582" lon="5.60303">
        <ele>403.8</ele>
      </trkpt>
      <trkpt lat="46.65828" lon="5.60305">
        <ele>405.1</ele>
      </trkpt>
      <trkpt lat="46.6583" lon="5.60313">
        <ele>405.1</ele>
        <extensions>
          <visugpx:TrkExtension xmlns:visugpx="https://www.visugpx.com/editgpx/">
            <visugpx:node>11</visugpx:node>
            </visugpx:TrkExtension>
        </extensions>
      </trkpt>
      <trkpt lat="46.65849" lon="5.60276">
        <ele>416</ele>
        <extensions>
          <visugpx:TrkExtension xmlns:visugpx="https://www.visugpx.com/editgpx/">
            <visugpx:node>12</visugpx:node>
            </visugpx:TrkExtension>
        </extensions>
      </trkpt>
      <trkpt lat="46.6585" lon="5.60276">
        <ele>416.5</ele>
      </trkpt>
      <trkpt lat="46.65849" lon="5.60268">
        <ele>416.2</ele>
      </trkpt>
      <trkpt lat="46.65856" lon="5.6023">
        <ele>420.9</ele>
      </trkpt>
      <trkpt lat="46.65872" lon="5.60205">
        <ele>425.6</ele>
      </trkpt>
      <trkpt lat="46.65893" lon="5.60193">
        <ele>429.5</ele>
      </trkpt>
      <trkpt lat="46.6591" lon="5.60161">
        <ele>435.8</ele>
      </trkpt>
      <trkpt lat="46.65925" lon="5.60154">
        <ele>441.2</ele>
      </trkpt>
      <trkpt lat="46.65938" lon="5.60165">
        <ele>450</ele>
      </trkpt>
      <trkpt lat="46.65934" lon="5.6018">
        <ele>450</ele>
      </trkpt>
      <trkpt lat="46.65939" lon="5.60196">
        <ele>455.6</ele>
      </trkpt>
      <trkpt lat="46.65953" lon="5.60161">
        <ele>458.4</ele>
      </trkpt>
      <trkpt lat="46.66018" lon="5.60115">
        <ele>474.3</ele>
      </trkpt>
      <trkpt lat="46.66018" lon="5.60121">
        <ele>478</ele>
      </trkpt>
      <trkpt lat="46.65979" lon="5.60188">
        <ele>488.6</ele>
      </trkpt>
      <trkpt lat="46.65983" lon="5.6021">
        <ele>493.2</ele>
      </trkpt>
      <trkpt lat="46.65985" lon="5.60213">
        <ele>494.7</ele>
        <extensions>
          <visugpx:TrkExtension xmlns:visugpx="https://www.visugpx.com/editgpx/">
            <visugpx:node>13</visugpx:node>
            </visugpx:TrkExtension>
        </extensions>
      </trkpt>
      <trkpt lat="46.65986" lon="5.60224">
        <ele>494</ele>
        <time>2018-07-17T06:48:45.000Z</time>
      </trkpt>
      <trkpt lat="46.65994" lon="5.60199">
        <ele>492</ele>
        <time>2018-07-17T06:49:03.000Z</time>
      </trkpt>
      <trkpt lat="46.65993" lon="5.60185">
        <ele>497.8</ele>
        <time>2018-07-17T06:49:13.000Z</time>
      </trkpt>
      <trkpt lat="46.65998" lon="5.60176">
        <ele>498.5</ele>
        <time>2018-07-17T06:49:23.000Z</time>
      </trkpt>
      <trkpt lat="46.66007" lon="5.60167">
        <ele>496</ele>
        <time>2018-07-17T06:49:33.000Z</time>
      </trkpt>
      <trkpt lat="46.66013" lon="5.60165">
        <ele>502.5</ele>
        <time>2018-07-17T06:49:43.000Z</time>
      </trkpt>
      <trkpt lat="46.66031" lon="5.60153">
        <ele>497</ele>
        <time>2018-07-17T06:49:46.000Z</time>
      </trkpt>
      <trkpt lat="46.66046" lon="5.60135">
        <ele>498</ele>
        <time>2018-07-17T06:50:09.000Z</time>
      </trkpt>
      <trkpt lat="46.66055" lon="5.60129">
        <ele>505.7</ele>
        <time>2018-07-17T06:50:19.000Z</time>
      </trkpt>
      <trkpt lat="46.66064" lon="5.60127">
        <ele>505</ele>
        <time>2018-07-17T06:50:29.000Z</time>
      </trkpt>
      <trkpt lat="46.66072" lon="5.60129">
        <ele>511.6</ele>
        <time>2018-07-17T06:50:39.000Z</time>
      </trkpt>
      <trkpt lat="46.66078" lon="5.60139">
        <ele>517.5</ele>
        <time>2018-07-17T06:50:49.000Z</time>
      </trkpt>
      <trkpt lat="46.66085" lon="5.60145">
        <ele>519</ele>
        <time>2018-07-17T06:51:04.000Z</time>
      </trkpt>
      <trkpt lat="46.66108" lon="5.60133">
        <ele>520</ele>
        <time>2018-07-17T06:51:27.000Z</time>
      </trkpt>
      <trkpt lat="46.66117" lon="5.6013">
        <ele>524</ele>
        <time>2018-07-17T06:51:37.000Z</time>
      </trkpt>
      <trkpt lat="46.66127" lon="5.60128">
        <ele>520</ele>
        <time>2018-07-17T06:51:42.000Z</time>
      </trkpt>
      <trkpt lat="46.66137" lon="5.60129">
        <ele>525.5</ele>
        <time>2018-07-17T06:51:52.000Z</time>
      </trkpt>
      <trkpt lat="46.66156" lon="5.60133">
        <ele>525</ele>
        <time>2018-07-17T06:52:02.000Z</time>
      </trkpt>
      <trkpt lat="46.66165" lon="5.60136">
        <ele>528.8</ele>
        <time>2018-07-17T06:52:12.000Z</time>
      </trkpt>
      <trkpt lat="46.66172" lon="5.6014">
        <ele>530.6</ele>
        <time>2018-07-17T06:52:22.000Z</time>
      </trkpt>
      <trkpt lat="46.6618" lon="5.60134">
        <ele>525</ele>
        <time>2018-07-17T06:52:30.000Z</time>
      </trkpt>
      <trkpt lat="46.66191" lon="5.60128">
        <ele>526.4</ele>
        <time>2018-07-17T06:52:40.000Z</time>
      </trkpt>
      <trkpt lat="46.66212" lon="5.60127">
        <ele>521</ele>
        <time>2018-07-17T06:52:44.000Z</time>
      </trkpt>
      <trkpt lat="46.66224" lon="5.60125">
        <ele>524</ele>
        <time>2018-07-17T06:52:54.000Z</time>
      </trkpt>
      <trkpt lat="46.66234" lon="5.60121">
        <ele>521</ele>
        <time>2018-07-17T06:52:54.000Z</time>
      </trkpt>
      <trkpt lat="46.66265" lon="5.60106">
        <ele>512</ele>
        <time>2018-07-17T06:53:08.000Z</time>
      </trkpt>
      <trkpt lat="46.66283" lon="5.6009">
        <ele>507</ele>
        <time>2018-07-17T06:53:16.000Z</time>
      </trkpt>
      <trkpt lat="46.66293" lon="5.60083">
        <ele>509.6</ele>
        <time>2018-07-17T06:53:26.000Z</time>
      </trkpt>
      <trkpt lat="46.66305" lon="5.60075">
        <ele>502</ele>
        <time>2018-07-17T06:53:24.000Z</time>
      </trkpt>
      <trkpt lat="46.66316" lon="5.60069">
        <ele>505.1</ele>
        <time>2018-07-17T06:53:34.000Z</time>
      </trkpt>
      <trkpt lat="46.66336" lon="5.60054">
        <ele>497</ele>
        <time>2018-07-17T06:53:35.000Z</time>
      </trkpt>
      <trkpt lat="46.66346" lon="5.60049">
        <ele>498.3</ele>
        <time>2018-07-17T06:53:45.000Z</time>
      </trkpt>
      <trkpt lat="46.66367" lon="5.60036">
        <ele>494</ele>
        <time>2018-07-17T06:53:44.000Z</time>
      </trkpt>
      <trkpt lat="46.66398" lon="5.60026">
        <ele>491</ele>
        <time>2018-07-17T06:53:54.000Z</time>
      </trkpt>
      <trkpt lat="46.6643" lon="5.60009">
        <ele>491</ele>
        <time>2018-07-17T06:54:11.000Z</time>
      </trkpt>
      <trkpt lat="46.66451" lon="5.59994">
        <ele>491</ele>
        <time>2018-07-17T06:54:12.000Z</time>
      </trkpt>
      <trkpt lat="46.6646" lon="5.59985">
        <ele>487.3</ele>
        <time>2018-07-17T06:54:22.000Z</time>
      </trkpt>
      <trkpt lat="46.66483" lon="5.59971">
        <ele>483</ele>
        <time>2018-07-17T06:54:23.000Z</time>
      </trkpt>
      <trkpt lat="46.66514" lon="5.59947">
        <ele>482</ele>
        <time>2018-07-17T06:54:34.000Z</time>
      </trkpt>
      <trkpt lat="46.66523" lon="5.59941">
        <ele>483.4</ele>
        <time>2018-07-17T06:54:44.000Z</time>
      </trkpt>
      <trkpt lat="46.66534" lon="5.59931">
        <ele>481</ele>
        <time>2018-07-17T06:54:41.000Z</time>
      </trkpt>
      <trkpt lat="46.66542" lon="5.59922">
        <ele>481.1</ele>
        <time>2018-07-17T06:54:51.000Z</time>
      </trkpt>
      <trkpt lat="46.66552" lon="5.59914">
        <ele>479</ele>
        <time>2018-07-17T06:54:48.000Z</time>
      </trkpt>
      <trkpt lat="46.6657" lon="5.59897">
        <ele>478</ele>
        <time>2018-07-17T06:54:56.000Z</time>
      </trkpt>
      <trkpt lat="46.66578" lon="5.59887">
        <ele>482.4</ele>
        <time>2018-07-17T06:55:06.000Z</time>
      </trkpt>
      <trkpt lat="46.66585" lon="5.59877">
        <ele>477</ele>
        <time>2018-07-17T06:55:04.000Z</time>
      </trkpt>
      <trkpt lat="46.66592" lon="5.59862">
        <ele>479</ele>
        <time>2018-07-17T06:55:14.000Z</time>
      </trkpt>
      <trkpt lat="46.66597" lon="5.59848">
        <ele>470</ele>
        <time>2018-07-17T06:55:13.000Z</time>
      </trkpt>
      <trkpt lat="46.66603" lon="5.59835">
        <ele>473.6</ele>
        <time>2018-07-17T06:55:23.000Z</time>
      </trkpt>
      <trkpt lat="46.66612" lon="5.59808">
        <ele>464</ele>
        <time>2018-07-17T06:55:28.000Z</time>
      </trkpt>
      <trkpt lat="46.66615" lon="5.59793">
        <ele>466.8</ele>
        <time>2018-07-17T06:55:38.000Z</time>
      </trkpt>
      <trkpt lat="46.66616" lon="5.59779">
        <ele>460</ele>
        <time>2018-07-17T06:55:36.000Z</time>
      </trkpt>
      <trkpt lat="46.66624" lon="5.59744">
        <ele>456</ele>
        <time>2018-07-17T06:55:46.000Z</time>
      </trkpt>
      <trkpt lat="46.66633" lon="5.59704">
        <ele>450</ele>
        <time>2018-07-17T06:56:03.000Z</time>
      </trkpt>
      <trkpt lat="46.66634" lon="5.59687">
        <ele>449.6</ele>
        <time>2018-07-17T06:56:13.000Z</time>
      </trkpt>
      <trkpt lat="46.66637" lon="5.5967">
        <ele>434</ele>
        <time>2018-07-17T06:56:13.000Z</time>
      </trkpt>
      <trkpt lat="46.66637" lon="5.59653">
        <ele>441.5</ele>
        <time>2018-07-17T06:56:23.000Z</time>
      </trkpt>
      <trkpt lat="46.6664" lon="5.59622">
        <ele>432</ele>
        <time>2018-07-17T06:56:22.000Z</time>
      </trkpt>
      <trkpt lat="46.66641" lon="5.59588">
        <ele>430</ele>
        <time>2018-07-17T06:56:32.000Z</time>
      </trkpt>
      <trkpt lat="46.66643" lon="5.59573">
        <ele>432.8</ele>
        <time>2018-07-17T06:56:42.000Z</time>
      </trkpt>
      <trkpt lat="46.66644" lon="5.59555">
        <ele>428</ele>
        <time>2018-07-17T06:56:39.000Z</time>
      </trkpt>
      <trkpt lat="46.66639" lon="5.59542">
        <ele>429.6</ele>
        <time>2018-07-17T06:56:49.000Z</time>
      </trkpt>
      <trkpt lat="46.66629" lon="5.59511">
        <ele>421</ele>
        <time>2018-07-17T06:56:58.000Z</time>
      </trkpt>
      <trkpt lat="46.66616" lon="5.59485">
        <ele>417</ele>
        <time>2018-07-17T06:56:59.000Z</time>
      </trkpt>
      <trkpt lat="46.66606" lon="5.59455">
        <ele>415</ele>
        <time>2018-07-17T06:57:06.000Z</time>
      </trkpt>
      <trkpt lat="46.66603" lon="5.59439">
        <ele>416.6</ele>
        <time>2018-07-17T06:57:16.000Z</time>
      </trkpt>
      <trkpt lat="46.66601" lon="5.59405">
        <ele>414</ele>
        <time>2018-07-17T06:57:17.000Z</time>
      </trkpt>
      <trkpt lat="46.66601" lon="5.59389">
        <ele>414.4</ele>
        <time>2018-07-17T06:57:27.000Z</time>
      </trkpt>
      <trkpt lat="46.66603" lon="5.59374">
        <ele>411</ele>
        <time>2018-07-17T06:57:23.000Z</time>
      </trkpt>
      <trkpt lat="46.66608" lon="5.59358">
        <ele>414.2</ele>
        <time>2018-07-17T06:57:33.000Z</time>
      </trkpt>
      <trkpt lat="46.66614" lon="5.59344">
        <ele>411</ele>
        <time>2018-07-17T06:57:31.000Z</time>
      </trkpt>
      <trkpt lat="46.66617" lon="5.5933">
        <ele>412.9</ele>
        <time>2018-07-17T06:57:41.000Z</time>
      </trkpt>
      <trkpt lat="46.66617" lon="5.59315">
        <ele>409</ele>
        <time>2018-07-17T06:57:41.000Z</time>
      </trkpt>
      <trkpt lat="46.66615" lon="5.59297">
        <ele>410.1</ele>
        <time>2018-07-17T06:57:51.000Z</time>
      </trkpt>
      <trkpt lat="46.66612" lon="5.59281">
        <ele>405</ele>
        <time>2018-07-17T06:57:50.000Z</time>
      </trkpt>
      <trkpt lat="46.66611" lon="5.59262">
        <ele>404.7</ele>
        <time>2018-07-17T06:58:00.000Z</time>
      </trkpt>
      <trkpt lat="46.66615" lon="5.59228">
        <ele>401</ele>
        <time>2018-07-17T06:58:03.000Z</time>
      </trkpt>
      <trkpt lat="46.66619" lon="5.59214">
        <ele>402.6</ele>
        <time>2018-07-17T06:58:13.000Z</time>
      </trkpt>
      <trkpt lat="46.6662" lon="5.59198">
        <ele>400</ele>
        <time>2018-07-17T06:58:11.000Z</time>
      </trkpt>
      <trkpt lat="46.66625" lon="5.59182">
        <ele>399.5</ele>
        <time>2018-07-17T06:58:21.000Z</time>
      </trkpt>
      <trkpt lat="46.6663" lon="5.59168">
        <ele>396</ele>
        <time>2018-07-17T06:58:19.000Z</time>
      </trkpt>
      <trkpt lat="46.66647" lon="5.5915">
        <ele>392</ele>
        <time>2018-07-17T06:58:28.000Z</time>
      </trkpt>
      <trkpt lat="46.66652" lon="5.59136">
        <ele>391.8</ele>
        <time>2018-07-17T06:58:38.000Z</time>
      </trkpt>
      <trkpt lat="46.66653" lon="5.5912">
        <ele>389</ele>
        <time>2018-07-17T06:58:38.000Z</time>
      </trkpt>
      <trkpt lat="46.66659" lon="5.59108">
        <ele>387.2</ele>
        <time>2018-07-17T06:58:48.000Z</time>
      </trkpt>
      <trkpt lat="46.66674" lon="5.59086">
        <ele>386</ele>
        <time>2018-07-17T06:58:48.000Z</time>
      </trkpt>
      <trkpt lat="46.66682" lon="5.59054">
        <ele>384</ele>
        <time>2018-07-17T06:58:58.000Z</time>
      </trkpt>
      <trkpt lat="46.6669" lon="5.59021">
        <ele>384</ele>
        <time>2018-07-17T06:59:05.000Z</time>
      </trkpt>
      <trkpt lat="46.66702" lon="5.58975">
        <ele>375</ele>
        <time>2018-07-17T06:59:15.000Z</time>
      </trkpt>
      <trkpt lat="46.66707" lon="5.58961">
        <ele>373.3</ele>
        <time>2018-07-17T06:59:25.000Z</time>
      </trkpt>
      <trkpt lat="46.66692" lon="5.58935">
        <ele>370</ele>
        <time>2018-07-17T06:59:29.000Z</time>
      </trkpt>
      <trkpt lat="46.66694" lon="5.58922">
        <ele>368.6</ele>
        <time>2018-07-17T06:59:39.000Z</time>
      </trkpt>
      <trkpt lat="46.66687" lon="5.58892">
        <ele>363</ele>
        <time>2018-07-17T06:59:40.000Z</time>
      </trkpt>
      <trkpt lat="46.66685" lon="5.58879">
        <ele>361.6</ele>
        <time>2018-07-17T06:59:50.000Z</time>
      </trkpt>
      <trkpt lat="46.66686" lon="5.58853">
        <ele>358</ele>
        <time>2018-07-17T06:59:49.000Z</time>
      </trkpt>
      <trkpt lat="46.6669" lon="5.58832">
        <ele>356</ele>
        <time>2018-07-17T06:59:59.000Z</time>
      </trkpt>
      <trkpt lat="46.66694" lon="5.58804">
        <ele>351</ele>
        <time>2018-07-17T07:00:01.000Z</time>
      </trkpt>
      <trkpt lat="46.66699" lon="5.58786">
        <ele>349.8</ele>
        <time>2018-07-17T07:00:11.000Z</time>
      </trkpt>
      <trkpt lat="46.66704" lon="5.58773">
        <ele>346</ele>
        <time>2018-07-17T07:00:08.000Z</time>
      </trkpt>
      <trkpt lat="46.66723" lon="5.58734">
        <ele>342</ele>
        <time>2018-07-17T07:00:25.000Z</time>
      </trkpt>
      <trkpt lat="46.66726" lon="5.58717">
        <ele>340.2</ele>
        <time>2018-07-17T07:00:35.000Z</time>
      </trkpt>
      <trkpt lat="46.66727" lon="5.58704">
        <ele>337</ele>
        <time>2018-07-17T07:00:32.000Z</time>
      </trkpt>
      <trkpt lat="46.66725" lon="5.58677">
        <ele>333</ele>
        <time>2018-07-17T07:00:31.000Z</time>
      </trkpt>
      <trkpt lat="46.66725" lon="5.58662">
        <ele>332.4</ele>
        <time>2018-07-17T07:00:41.000Z</time>
      </trkpt>
      <trkpt lat="46.66726" lon="5.58652">
        <ele>331</ele>
        <time>2018-07-17T07:00:51.000Z</time>
      </trkpt>
      <trkpt lat="46.6673" lon="5.58639">
        <ele>328</ele>
        <time>2018-07-17T07:00:39.000Z</time>
      </trkpt>
      <trkpt lat="46.66735" lon="5.58627">
        <ele>328</ele>
        <time>2018-07-17T07:00:49.000Z</time>
      </trkpt>
      <trkpt lat="46.66741" lon="5.58616">
        <ele>325</ele>
        <time>2018-07-17T07:00:45.000Z</time>
      </trkpt>
      <trkpt lat="46.66746" lon="5.5861">
        <ele>326.4</ele>
        <time>2018-07-17T07:00:55.000Z</time>
      </trkpt>
      <trkpt lat="46.6675" lon="5.58604">
        <ele>326</ele>
        <time>2018-07-17T07:01:05.000Z</time>
      </trkpt>
      <trkpt lat="46.66767" lon="5.58587">
        <ele>323</ele>
        <time>2018-07-17T07:00:56.000Z</time>
      </trkpt>
      <trkpt lat="46.66772" lon="5.5858">
        <ele>324.8</ele>
        <time>2018-07-17T07:01:06.000Z</time>
      </trkpt>
      <trkpt lat="46.66778" lon="5.58574">
        <ele>324.3</ele>
        <time>2018-07-17T07:01:16.000Z</time>
      </trkpt>
      <trkpt lat="46.6678" lon="5.58559">
        <ele>320</ele>
        <time>2018-07-17T07:01:23.000Z</time>
        <extensions>
          <visugpx:TrkExtension xmlns:visugpx="https://www.visugpx.com/editgpx/">
            <visugpx:node>15</visugpx:node>
            </visugpx:TrkExtension>
        </extensions>
      </trkpt>
      <trkpt lat="46.66764" lon="5.58527">
        <ele>317.9</ele>
      </trkpt>
      <trkpt lat="46.66725" lon="5.58483">
        <ele>313.6</ele>
      </trkpt>
      <trkpt lat="46.66717" lon="5.58451">
        <ele>311</ele>
      </trkpt>
      <trkpt lat="46.66717" lon="5.58437">
        <ele>310.4</ele>
        <extensions>
          <visugpx:TrkExtension xmlns:visugpx="https://www.visugpx.com/editgpx/">
            <visugpx:node>16</visugpx:node>
            </visugpx:TrkExtension>
        </extensions>
      </trkpt>
      <trkpt lat="46.66717" lon="5.58375">
        <ele>306.4</ele>
        <extensions>
          <visugpx:TrkExtension xmlns:visugpx="https://www.visugpx.com/editgpx/">
            <visugpx:node>17</visugpx:node>
            </visugpx:TrkExtension>
        </extensions>
      </trkpt>
      <trkpt lat="46.66715" lon="5.58361">
        <ele>305.7</ele>
      </trkpt>
      <trkpt lat="46.66726" lon="5.58362">
        <ele>306.2</ele>
      </trkpt>
      <trkpt lat="46.66754" lon="5.58367">
        <ele>307.2</ele>
      </trkpt>
      <trkpt lat="46.66761" lon="5.58367">
        <ele>307.3</ele>
      </trkpt>
      <trkpt lat="46.66762" lon="5.58366">
        <ele>307.3</ele>
        <extensions>
          <visugpx:TrkExtension xmlns:visugpx="https://www.visugpx.com/editgpx/">
            <visugpx:node>18</visugpx:node>
            </visugpx:TrkExtension>
        </extensions>
      </trkpt>
      <trkpt lat="46.66763" lon="5.58365">
        <ele>307.2</ele>
      </trkpt>
      <trkpt lat="46.66764" lon="5.58361">
        <ele>307</ele>
      </trkpt>
      <trkpt lat="46.66766" lon="5.58357">
        <ele>306.7</ele>
      </trkpt>
      <trkpt lat="46.66767" lon="5.58352">
        <ele>306.3</ele>
      </trkpt>
      <trkpt lat="46.66769" lon="5.58348">
        <ele>306.1</ele>
      </trkpt>
      <trkpt lat="46.6677" lon="5.58344">
        <ele>305.8</ele>
      </trkpt>
      <trkpt lat="46.66772" lon="5.58339">
        <ele>305.4</ele>
      </trkpt>
      <trkpt lat="46.66774" lon="5.58331">
        <ele>305.1</ele>
      </trkpt>
      <trkpt lat="46.66784" lon="5.58333">
        <ele>305.5</ele>
      </trkpt>
      <trkpt lat="46.66799" lon="5.5834">
        <ele>306.8</ele>
      </trkpt>
      <trkpt lat="46.6681" lon="5.58345">
        <ele>307.5</ele>
      </trkpt>
      <trkpt lat="46.66813" lon="5.58343">
        <ele>307.4</ele>
        <extensions>
          <visugpx:TrkExtension xmlns:visugpx="https://www.visugpx.com/editgpx/">
            <visugpx:node>19</visugpx:node>
            </visugpx:TrkExtension>
        </extensions>
      </trkpt>
      <trkpt lat="46.66817" lon="5.58346">
        <ele>307</ele>
        <time>2018-07-17T07:02:42.000Z</time>
        <extensions>
          <visugpx:TrkExtension xmlns:visugpx="https://www.visugpx.com/editgpx/">
            <visugpx:node>15</visugpx:node>
            </visugpx:TrkExtension>
        </extensions>
      </trkpt>
      <trkpt lat="46.66824" lon="5.58348">
        <ele>307.9</ele>
        <time>2018-07-17T07:02:52.000Z</time>
      </trkpt>
      <trkpt lat="46.6683" lon="5.58343">
        <ele>307.7</ele>
        <time>2018-07-17T07:03:02.000Z</time>
      </trkpt>
      <trkpt lat="46.66834" lon="5.58333">
        <ele>306</ele>
        <time>2018-07-17T07:02:52.000Z</time>
      </trkpt>
      <trkpt lat="46.66839" lon="5.58307">
        <ele>306</ele>
        <time>2018-07-17T07:02:58.000Z</time>
      </trkpt>
      <trkpt lat="46.66845" lon="5.58271">
        <ele>306</ele>
        <time>2018-07-17T07:03:07.000Z</time>
      </trkpt>
      <trkpt lat="46.66855" lon="5.5824">
        <ele>306</ele>
        <time>2018-07-17T07:03:16.000Z</time>
      </trkpt>
      <trkpt lat="46.66863" lon="5.58236">
        <ele>306.5</ele>
        <time>2018-07-17T07:03:26.000Z</time>
      </trkpt>
      <trkpt lat="46.66872" lon="5.58237">
        <ele>306.7</ele>
        <time>2018-07-17T07:03:36.000Z</time>
      </trkpt>
      <trkpt lat="46.66879" lon="5.58235">
        <ele>306</ele>
        <time>2018-07-17T07:03:25.000Z</time>
      </trkpt>
      <trkpt lat="46.66889" lon="5.58226">
        <ele>307</ele>
        <time>2018-07-17T07:03:35.000Z</time>
      </trkpt>
      <trkpt lat="46.66895" lon="5.58222">
        <ele>307.2</ele>
        <time>2018-07-17T07:03:45.000Z</time>
      </trkpt>
      <trkpt lat="46.66898" lon="5.58215">
        <ele>307</ele>
        <time>2018-07-17T07:03:44.000Z</time>
      </trkpt>
      <trkpt lat="46.66903" lon="5.5821">
        <ele>307.9</ele>
        <time>2018-07-17T07:03:54.000Z</time>
      </trkpt>
      <trkpt lat="46.66908" lon="5.58209">
        <ele>308.2</ele>
        <time>2018-07-17T07:04:04.000Z</time>
      </trkpt>
      <trkpt lat="46.66921" lon="5.58212">
        <ele>308</ele>
        <time>2018-07-17T07:04:01.000Z</time>
      </trkpt>
      <trkpt lat="46.66925" lon="5.58212">
        <ele>308.7</ele>
        <time>2018-07-17T07:04:11.000Z</time>
      </trkpt>
      <trkpt lat="46.66945" lon="5.58209">
        <ele>308</ele>
        <time>2018-07-17T07:04:17.000Z</time>
      </trkpt>
      <trkpt lat="46.66953" lon="5.58206">
        <ele>309.7</ele>
        <time>2018-07-17T07:04:27.000Z</time>
      </trkpt>
      <trkpt lat="46.66954" lon="5.58199">
        <ele>309.5</ele>
        <time>2018-07-17T07:04:37.000Z</time>
      </trkpt>
      <trkpt lat="46.66952" lon="5.58192">
        <ele>309.3</ele>
        <time>2018-07-17T07:04:47.000Z</time>
      </trkpt>
      <trkpt lat="46.66951" lon="5.58149">
        <ele>308</ele>
        <time>2018-07-17T07:04:44.000Z</time>
      </trkpt>
      <trkpt lat="46.66949" lon="5.58107">
        <ele>308</ele>
        <time>2018-07-17T07:04:55.000Z</time>
      </trkpt>
      <trkpt lat="46.66949" lon="5.58095">
        <ele>308.4</ele>
        <time>2018-07-17T07:05:05.000Z</time>
      </trkpt>
      <trkpt lat="46.66947" lon="5.58084">
        <ele>308</ele>
        <time>2018-07-17T07:05:15.000Z</time>
      </trkpt>
      <trkpt lat="46.66947" lon="5.5806">
        <ele>307</ele>
        <time>2018-07-17T07:05:14.000Z</time>
      </trkpt>
      <trkpt lat="46.66943" lon="5.58055">
        <ele>307</ele>
        <time>2018-07-17T07:05:24.000Z</time>
      </trkpt>
      <trkpt lat="46.66925" lon="5.58051">
        <ele>307</ele>
        <time>2018-07-17T07:05:26.000Z</time>
      </trkpt>
      <trkpt lat="46.66921" lon="5.58046">
        <ele>307.2</ele>
        <time>2018-07-17T07:05:36.000Z</time>
      </trkpt>
      <trkpt lat="46.66908" lon="5.58022">
        <ele>307</ele>
        <time>2018-07-17T07:05:39.000Z</time>
      </trkpt>
      <trkpt lat="46.66904" lon="5.58012">
        <ele>306.5</ele>
        <time>2018-07-17T07:05:49.000Z</time>
      </trkpt>
      <trkpt lat="46.669" lon="5.57998">
        <ele>306.6</ele>
        <time>2018-07-17T07:05:59.000Z</time>
      </trkpt>
      <trkpt lat="46.66898" lon="5.57983">
        <ele>307</ele>
        <time>2018-07-17T07:05:50.000Z</time>
      </trkpt>
      <trkpt lat="46.66894" lon="5.57943">
        <ele>304</ele>
        <time>2018-07-17T07:06:01.000Z</time>
      </trkpt>
      <trkpt lat="46.66889" lon="5.57917">
        <ele>302</ele>
        <time>2018-07-17T07:06:08.000Z</time>
      </trkpt>
      <trkpt lat="46.66889" lon="5.57861">
        <ele>297</ele>
        <time>2018-07-17T07:06:22.000Z</time>
      </trkpt>
      <trkpt lat="46.66888" lon="5.57848">
        <ele>296.1</ele>
        <time>2018-07-17T07:06:32.000Z</time>
      </trkpt>
      <trkpt lat="46.66883" lon="5.5782">
        <ele>294</ele>
        <time>2018-07-17T07:06:32.000Z</time>
      </trkpt>
      <trkpt lat="46.66877" lon="5.578">
        <ele>291.3</ele>
        <time>2018-07-17T07:06:42.000Z</time>
      </trkpt>
      <trkpt lat="46.66878" lon="5.57792">
        <ele>289</ele>
        <time>2018-07-17T07:06:40.000Z</time>
      </trkpt>
      <trkpt lat="46.66881" lon="5.57785">
        <ele>289.5</ele>
        <time>2018-07-17T07:06:50.000Z</time>
      </trkpt>
      <trkpt lat="46.66891" lon="5.5777">
        <ele>287</ele>
        <time>2018-07-17T07:06:47.000Z</time>
      </trkpt>
      <trkpt lat="46.66896" lon="5.5776">
        <ele>287.8</ele>
        <time>2018-07-17T07:06:57.000Z</time>
      </trkpt>
      <trkpt lat="46.66897" lon="5.57748">
        <ele>286.6</ele>
        <time>2018-07-17T07:07:07.000Z</time>
      </trkpt>
      <trkpt lat="46.66893" lon="5.57733">
        <ele>284</ele>
        <time>2018-07-17T07:06:57.000Z</time>
      </trkpt>
      <trkpt lat="46.6689" lon="5.57726">
        <ele>283.5</ele>
        <time>2018-07-17T07:07:07.000Z</time>
      </trkpt>
      <trkpt lat="46.66885" lon="5.5771">
        <ele>282.6</ele>
        <time>2018-07-17T07:07:17.000Z</time>
      </trkpt>
      <trkpt lat="46.66882" lon="5.57698">
        <ele>281</ele>
        <time>2018-07-17T07:07:06.000Z</time>
      </trkpt>
      <trkpt lat="46.66879" lon="5.57683">
        <ele>281.6</ele>
        <time>2018-07-17T07:07:16.000Z</time>
      </trkpt>
      <trkpt lat="46.6687" lon="5.57673">
        <ele>281</ele>
        <time>2018-07-17T07:07:15.000Z</time>
      </trkpt>
      <trkpt lat="46.6686" lon="5.57664">
        <ele>280.9</ele>
        <time>2018-07-17T07:07:25.000Z</time>
      </trkpt>
      <trkpt lat="46.66846" lon="5.57654">
        <ele>281</ele>
        <time>2018-07-17T07:07:25.000Z</time>
      </trkpt>
      <trkpt lat="46.66839" lon="5.57648">
        <ele>280.9</ele>
        <time>2018-07-17T07:07:35.000Z</time>
      </trkpt>
      <trkpt lat="46.66834" lon="5.57642">
        <ele>281</ele>
        <time>2018-07-17T07:07:45.000Z</time>
      </trkpt>
      <trkpt lat="46.66835" lon="5.57617">
        <ele>280</ele>
        <time>2018-07-17T07:07:38.000Z</time>
      </trkpt>
      <trkpt lat="46.66838" lon="5.57607">
        <ele>280.6</ele>
        <time>2018-07-17T07:07:48.000Z</time>
      </trkpt>
      <trkpt lat="46.66835" lon="5.57595">
        <ele>279.8</ele>
        <time>2018-07-17T07:07:58.000Z</time>
      </trkpt>
      <trkpt lat="46.66828" lon="5.57589">
        <ele>279</ele>
        <time>2018-07-17T07:07:48.000Z</time>
      </trkpt>
      <trkpt lat="46.66814" lon="5.57581">
        <ele>279.6</ele>
        <time>2018-07-17T07:07:58.000Z</time>
      </trkpt>
      <trkpt lat="46.66802" lon="5.57573">
        <ele>279</ele>
        <time>2018-07-17T07:07:59.000Z</time>
      </trkpt>
      <trkpt lat="46.66789" lon="5.5756">
        <ele>279.2</ele>
        <time>2018-07-17T07:08:09.000Z</time>
      </trkpt>
      <trkpt lat="46.66775" lon="5.57551">
        <ele>279</ele>
        <time>2018-07-17T07:08:11.000Z</time>
      </trkpt>
      <trkpt lat="46.66756" lon="5.57531">
        <ele>276</ele>
        <time>2018-07-17T07:08:20.000Z</time>
      </trkpt>
      <trkpt lat="46.66751" lon="5.57523">
        <ele>276.9</ele>
        <time>2018-07-17T07:08:30.000Z</time>
      </trkpt>
      <trkpt lat="46.66742" lon="5.57513">
        <ele>276</ele>
        <time>2018-07-17T07:08:27.000Z</time>
      </trkpt>
      <trkpt lat="46.66738" lon="5.57502">
        <ele>275.2</ele>
        <time>2018-07-17T07:08:37.000Z</time>
      </trkpt>
      <trkpt lat="46.66739" lon="5.57489">
        <ele>275.4</ele>
        <time>2018-07-17T07:08:47.000Z</time>
      </trkpt>
      <trkpt lat="46.66743" lon="5.57474">
        <ele>274</ele>
        <time>2018-07-17T07:08:37.000Z</time>
      </trkpt>
      <trkpt lat="46.66753" lon="5.57426">
        <ele>272</ele>
        <time>2018-07-17T07:08:50.000Z</time>
      </trkpt>
      <trkpt lat="46.66754" lon="5.57413">
        <ele>273.6</ele>
        <time>2018-07-17T07:09:00.000Z</time>
      </trkpt>
      <trkpt lat="46.66756" lon="5.57401">
        <ele>273.7</ele>
        <time>2018-07-17T07:09:10.000Z</time>
      </trkpt>
      <trkpt lat="46.66763" lon="5.57372">
        <ele>272</ele>
        <time>2018-07-17T07:09:05.000Z</time>
      </trkpt>
      <trkpt lat="46.66767" lon="5.57345">
        <ele>272</ele>
        <time>2018-07-17T07:09:13.000Z</time>
      </trkpt>
      <trkpt lat="46.66774" lon="5.57322">
        <ele>274.5</ele>
        <time>2018-07-17T07:09:23.000Z</time>
      </trkpt>
      <trkpt lat="46.66783" lon="5.57303">
        <ele>273</ele>
        <time>2018-07-17T07:09:25.000Z</time>
      </trkpt>
      <trkpt lat="46.66801" lon="5.57276">
        <ele>272</ele>
        <time>2018-07-17T07:09:34.000Z</time>
      </trkpt>
      <trkpt lat="46.66806" lon="5.57267">
        <ele>272.9</ele>
        <time>2018-07-17T07:09:44.000Z</time>
      </trkpt>
      <trkpt lat="46.6681" lon="5.57254">
        <ele>271.8</ele>
        <time>2018-07-17T07:09:54.000Z</time>
      </trkpt>
      <trkpt lat="46.66821" lon="5.57237">
        <ele>272</ele>
        <time>2018-07-17T07:09:47.000Z</time>
      </trkpt>
      <trkpt lat="46.66825" lon="5.57226">
        <ele>273.6</ele>
        <time>2018-07-17T07:09:57.000Z</time>
      </trkpt>
      <trkpt lat="46.66823" lon="5.57212">
        <ele>273.4</ele>
        <time>2018-07-17T07:10:07.000Z</time>
      </trkpt>
      <trkpt lat="46.66804" lon="5.57213">
        <ele>273</ele>
        <time>2018-07-17T07:10:03.000Z</time>
      </trkpt>
      <trkpt lat="46.66781" lon="5.57208">
        <ele>274</ele>
        <time>2018-07-17T07:10:12.000Z</time>
      </trkpt>
      <trkpt lat="46.66765" lon="5.57208">
        <ele>275.2</ele>
        <time>2018-07-17T07:10:22.000Z</time>
      </trkpt>
      <trkpt lat="46.66756" lon="5.5721">
        <ele>274</ele>
        <time>2018-07-17T07:10:23.000Z</time>
      </trkpt>
      <trkpt lat="46.66731" lon="5.57227">
        <ele>275</ele>
        <time>2018-07-17T07:10:34.000Z</time>
      </trkpt>
      <trkpt lat="46.66724" lon="5.5723">
        <ele>276.2</ele>
        <time>2018-07-17T07:10:44.000Z</time>
      </trkpt>
      <trkpt lat="46.66719" lon="5.5723">
        <ele>276.7</ele>
        <time>2018-07-17T07:10:54.000Z</time>
      </trkpt>
      <trkpt lat="46.66711" lon="5.57226">
        <ele>275</ele>
        <time>2018-07-17T07:10:42.000Z</time>
      </trkpt>
      <trkpt lat="46.66707" lon="5.57221">
        <ele>278.2</ele>
        <time>2018-07-17T07:10:52.000Z</time>
      </trkpt>
      <trkpt lat="46.66702" lon="5.57211">
        <ele>278.9</ele>
        <time>2018-07-17T07:11:02.000Z</time>
      </trkpt>
      <trkpt lat="46.66698" lon="5.57201">
        <ele>280</ele>
        <time>2018-07-17T07:10:50.000Z</time>
      </trkpt>
      <trkpt lat="46.66698" lon="5.57186">
        <ele>279.8</ele>
        <time>2018-07-17T07:11:00.000Z</time>
      </trkpt>
      <trkpt lat="46.66699" lon="5.5717">
        <ele>278</ele>
        <time>2018-07-17T07:11:02.000Z</time>
      </trkpt>
      <trkpt lat="46.66695" lon="5.57155">
        <ele>279.4</ele>
        <time>2018-07-17T07:11:12.000Z</time>
      </trkpt>
      <trkpt lat="46.66695" lon="5.57141">
        <ele>278</ele>
        <time>2018-07-17T07:11:08.000Z</time>
      </trkpt>
      <trkpt lat="46.66696" lon="5.57126">
        <ele>276.4</ele>
        <time>2018-07-17T07:11:18.000Z</time>
      </trkpt>
      <trkpt lat="46.66698" lon="5.5711">
        <ele>277</ele>
        <time>2018-07-17T07:11:15.000Z</time>
      </trkpt>
      <trkpt lat="46.66702" lon="5.57095">
        <ele>277.6</ele>
        <time>2018-07-17T07:11:25.000Z</time>
      </trkpt>
      <trkpt lat="46.66711" lon="5.57074">
        <ele>277</ele>
        <time>2018-07-17T07:11:25.000Z</time>
      </trkpt>
      <trkpt lat="46.66722" lon="5.57042">
        <ele>278</ele>
        <time>2018-07-17T07:11:34.000Z</time>
      </trkpt>
      <trkpt lat="46.6673" lon="5.57031">
        <ele>278</ele>
        <time>2018-07-17T07:11:44.000Z</time>
      </trkpt>
      <trkpt lat="46.66739" lon="5.57023">
        <ele>278</ele>
        <time>2018-07-17T07:11:42.000Z</time>
      </trkpt>
      <trkpt lat="46.66749" lon="5.57016">
        <ele>276.9</ele>
        <time>2018-07-17T07:11:52.000Z</time>
      </trkpt>
      <trkpt lat="46.6676" lon="5.5701">
        <ele>277</ele>
        <time>2018-07-17T07:11:50.000Z</time>
      </trkpt>
      <trkpt lat="46.66768" lon="5.57003">
        <ele>275.9</ele>
        <time>2018-07-17T07:12:00.000Z</time>
      </trkpt>
      <trkpt lat="46.66773" lon="5.56997">
        <ele>275.6</ele>
        <time>2018-07-17T07:12:10.000Z</time>
      </trkpt>
      <trkpt lat="46.66775" lon="5.56988">
        <ele>278</ele>
        <time>2018-07-17T07:12:00.000Z</time>
      </trkpt>
      <trkpt lat="46.66774" lon="5.56979">
        <ele>276.3</ele>
        <time>2018-07-17T07:12:10.000Z</time>
      </trkpt>
      <trkpt lat="46.6677" lon="5.56961">
        <ele>280</ele>
        <time>2018-07-17T07:12:11.000Z</time>
      </trkpt>
      <trkpt lat="46.66766" lon="5.56952">
        <ele>281.4</ele>
        <time>2018-07-17T07:12:21.000Z</time>
      </trkpt>
      <trkpt lat="46.6676" lon="5.56932">
        <ele>285</ele>
        <time>2018-07-17T07:12:26.000Z</time>
      </trkpt>
      <trkpt lat="46.66755" lon="5.56911">
        <ele>288.5</ele>
        <time>2018-07-17T07:12:36.000Z</time>
      </trkpt>
      <trkpt lat="46.6676" lon="5.56898">
        <ele>290</ele>
        <time>2018-07-17T07:12:44.000Z</time>
      </trkpt>
      <trkpt lat="46.66764" lon="5.56885">
        <ele>290</ele>
        <time>2018-07-17T07:12:54.000Z</time>
      </trkpt>
      <trkpt lat="46.6676" lon="5.56871">
        <ele>290</ele>
        <time>2018-07-17T07:13:06.000Z</time>
      </trkpt>
      <trkpt lat="46.66757" lon="5.56855">
        <ele>290.2</ele>
        <time>2018-07-17T07:13:16.000Z</time>
      </trkpt>
      <trkpt lat="46.66756" lon="5.5684">
        <ele>290</ele>
        <time>2018-07-17T07:13:20.000Z</time>
      </trkpt>
      <trkpt lat="46.6675" lon="5.56825">
        <ele>288.8</ele>
        <time>2018-07-17T07:13:30.000Z</time>
      </trkpt>
      <trkpt lat="46.66743" lon="5.56811">
        <ele>286</ele>
        <time>2018-07-17T07:13:30.000Z</time>
      </trkpt>
      <trkpt lat="46.66743" lon="5.56796">
        <ele>285.1</ele>
        <time>2018-07-17T07:13:40.000Z</time>
      </trkpt>
      <trkpt lat="46.66746" lon="5.5678">
        <ele>281</ele>
        <time>2018-07-17T07:13:38.000Z</time>
      </trkpt>
      <trkpt lat="46.66752" lon="5.56765">
        <ele>280.9</ele>
        <time>2018-07-17T07:13:48.000Z</time>
      </trkpt>
      <trkpt lat="46.66764" lon="5.5676">
        <ele>277</ele>
        <time>2018-07-17T07:13:47.000Z</time>
      </trkpt>
      <trkpt lat="46.66775" lon="5.56761">
        <ele>277.5</ele>
        <time>2018-07-17T07:13:57.000Z</time>
      </trkpt>
      <trkpt lat="46.66808" lon="5.56752">
        <ele>274</ele>
        <time>2018-07-17T07:14:03.000Z</time>
      </trkpt>
      <trkpt lat="46.66816" lon="5.56739">
        <ele>273.1</ele>
        <time>2018-07-17T07:14:13.000Z</time>
      </trkpt>
      <trkpt lat="46.6682" lon="5.56724">
        <ele>273</ele>
        <time>2018-07-17T07:14:13.000Z</time>
      </trkpt>
      <trkpt lat="46.66823" lon="5.56709">
        <ele>272.6</ele>
        <time>2018-07-17T07:14:23.000Z</time>
      </trkpt>
      <trkpt lat="46.66834" lon="5.56703">
        <ele>272</ele>
        <time>2018-07-17T07:14:24.000Z</time>
      </trkpt>
      <trkpt lat="46.66875" lon="5.56696">
        <ele>270</ele>
        <time>2018-07-17T07:14:39.000Z</time>
      </trkpt>
      <trkpt lat="46.66883" lon="5.56703">
        <ele>270.2</ele>
        <time>2018-07-17T07:14:49.000Z</time>
      </trkpt>
      <trkpt lat="46.66891" lon="5.56715">
        <ele>270</ele>
        <time>2018-07-17T07:14:47.000Z</time>
      </trkpt>
      <trkpt lat="46.66895" lon="5.56729">
        <ele>271</ele>
        <time>2018-07-17T07:14:57.000Z</time>
      </trkpt>
      <trkpt lat="46.66903" lon="5.56737">
        <ele>270</ele>
        <time>2018-07-17T07:14:56.000Z</time>
      </trkpt>
      <trkpt lat="46.66925" lon="5.56736">
        <ele>269</ele>
        <time>2018-07-17T07:15:04.000Z</time>
      </trkpt>
      <trkpt lat="46.66935" lon="5.56734">
        <ele>269.3</ele>
        <time>2018-07-17T07:15:14.000Z</time>
      </trkpt>
      <trkpt lat="46.66964" lon="5.56736">
        <ele>268</ele>
        <time>2018-07-17T07:15:26.000Z</time>
      </trkpt>
      <trkpt lat="46.66972" lon="5.56745">
        <ele>268</ele>
        <time>2018-07-17T07:15:36.000Z</time>
      </trkpt>
      <trkpt lat="46.66989" lon="5.56774">
        <ele>268</ele>
        <time>2018-07-17T07:15:33.000Z</time>
      </trkpt>
      <trkpt lat="46.66997" lon="5.5679">
        <ele>268.5</ele>
        <time>2018-07-17T07:15:43.000Z</time>
      </trkpt>
      <trkpt lat="46.67006" lon="5.56805">
        <ele>268</ele>
        <time>2018-07-17T07:15:43.000Z</time>
      </trkpt>
      <trkpt lat="46.67016" lon="5.56803">
        <ele>267.9</ele>
        <time>2018-07-17T07:15:53.000Z</time>
      </trkpt>
      <trkpt lat="46.67031" lon="5.56787">
        <ele>267</ele>
        <time>2018-07-17T07:15:56.000Z</time>
      </trkpt>
      <trkpt lat="46.67039" lon="5.56777">
        <ele>267.6</ele>
        <time>2018-07-17T07:16:06.000Z</time>
      </trkpt>
      <trkpt lat="46.67052" lon="5.56764">
        <ele>267</ele>
        <time>2018-07-17T07:16:06.000Z</time>
      </trkpt>
      <trkpt lat="46.67058" lon="5.56756">
        <ele>266.9</ele>
        <time>2018-07-17T07:16:16.000Z</time>
      </trkpt>
      <trkpt lat="46.67081" lon="5.56731">
        <ele>266</ele>
        <time>2018-07-17T07:16:19.000Z</time>
      </trkpt>
      <trkpt lat="46.67088" lon="5.56721">
        <ele>267</ele>
        <time>2018-07-17T07:16:29.000Z</time>
      </trkpt>
      <trkpt lat="46.67094" lon="5.56709">
        <ele>266</ele>
        <time>2018-07-17T07:16:27.000Z</time>
      </trkpt>
      <trkpt lat="46.67106" lon="5.56663">
        <ele>266</ele>
        <time>2018-07-17T07:16:40.000Z</time>
      </trkpt>
      <trkpt lat="46.67118" lon="5.56638">
        <ele>266</ele>
        <time>2018-07-17T07:16:48.000Z</time>
      </trkpt>
      <trkpt lat="46.67123" lon="5.56624">
        <ele>265.5</ele>
        <time>2018-07-17T07:16:58.000Z</time>
      </trkpt>
      <trkpt lat="46.67128" lon="5.56592">
        <ele>265</ele>
        <time>2018-07-17T07:17:01.000Z</time>
      </trkpt>
      <trkpt lat="46.67133" lon="5.56576">
        <ele>265.2</ele>
        <time>2018-07-17T07:17:11.000Z</time>
      </trkpt>
      <trkpt lat="46.67135" lon="5.56562">
        <ele>265</ele>
        <time>2018-07-17T07:17:09.000Z</time>
      </trkpt>
      <trkpt lat="46.67141" lon="5.56548">
        <ele>264.9</ele>
        <time>2018-07-17T07:17:19.000Z</time>
      </trkpt>
      <trkpt lat="46.67148" lon="5.56534">
        <ele>265</ele>
        <time>2018-07-17T07:17:17.000Z</time>
      </trkpt>
      <trkpt lat="46.67157" lon="5.5652">
        <ele>265</ele>
        <time>2018-07-17T07:17:27.000Z</time>
      </trkpt>
      <trkpt lat="46.67164" lon="5.56506">
        <ele>264</ele>
        <time>2018-07-17T07:17:25.000Z</time>
      </trkpt>
      <trkpt lat="46.67169" lon="5.56493">
        <ele>264.7</ele>
        <time>2018-07-17T07:17:35.000Z</time>
      </trkpt>
      <trkpt lat="46.67179" lon="5.56482">
        <ele>264</ele>
        <time>2018-07-17T07:17:32.000Z</time>
      </trkpt>
      <trkpt lat="46.67199" lon="5.56465">
        <ele>264</ele>
        <time>2018-07-17T07:17:40.000Z</time>
      </trkpt>
      <trkpt lat="46.67208" lon="5.56455">
        <ele>263.6</ele>
        <time>2018-07-17T07:17:50.000Z</time>
      </trkpt>
      <trkpt lat="46.67216" lon="5.56443">
        <ele>263</ele>
        <time>2018-07-17T07:17:49.000Z</time>
      </trkpt>
      <trkpt lat="46.67222" lon="5.5643">
        <ele>264</ele>
        <time>2018-07-17T07:17:59.000Z</time>
      </trkpt>
      <trkpt lat="46.67227" lon="5.56415">
        <ele>263</ele>
        <time>2018-07-17T07:17:59.000Z</time>
      </trkpt>
      <trkpt lat="46.67232" lon="5.56385">
        <ele>263</ele>
        <time>2018-07-17T07:18:07.000Z</time>
      </trkpt>
      <trkpt lat="46.67238" lon="5.56334">
        <ele>262</ele>
        <time>2018-07-17T07:18:20.000Z</time>
      </trkpt>
      <trkpt lat="46.6724" lon="5.56287">
        <ele>261</ele>
        <time>2018-07-17T07:18:32.000Z</time>
      </trkpt>
      <trkpt lat="46.67244" lon="5.56271">
        <ele>262</ele>
        <time>2018-07-17T07:18:42.000Z</time>
      </trkpt>
      <trkpt lat="46.67244" lon="5.56256">
        <ele>261</ele>
        <time>2018-07-17T07:18:41.000Z</time>
      </trkpt>
      <trkpt lat="46.67249" lon="5.56221">
        <ele>261</ele>
        <time>2018-07-17T07:18:50.000Z</time>
      </trkpt>
      <trkpt lat="46.67255" lon="5.56187">
        <ele>261</ele>
        <time>2018-07-17T07:18:58.000Z</time>
      </trkpt>
      <trkpt lat="46.67257" lon="5.56156">
        <ele>260</ele>
        <time>2018-07-17T07:19:06.000Z</time>
      </trkpt>
      <trkpt lat="46.67261" lon="5.56125">
        <ele>260</ele>
        <time>2018-07-17T07:19:15.000Z</time>
      </trkpt>
      <trkpt lat="46.67267" lon="5.56091">
        <ele>260</ele>
        <time>2018-07-17T07:19:24.000Z</time>
      </trkpt>
      <trkpt lat="46.67267" lon="5.56076">
        <ele>260</ele>
        <time>2018-07-17T07:19:34.000Z</time>
      </trkpt>
      <trkpt lat="46.67273" lon="5.56047">
        <ele>260</ele>
        <time>2018-07-17T07:19:34.000Z</time>
      </trkpt>
      <trkpt lat="46.67275" lon="5.56012">
        <ele>259</ele>
        <time>2018-07-17T07:19:42.000Z</time>
      </trkpt>
      <trkpt lat="46.67277" lon="5.55997">
        <ele>259.9</ele>
        <time>2018-07-17T07:19:52.000Z</time>
      </trkpt>
      <trkpt lat="46.67278" lon="5.55982">
        <ele>259</ele>
        <time>2018-07-17T07:19:50.000Z</time>
      </trkpt>
      <trkpt lat="46.6728" lon="5.55966">
        <ele>259.1</ele>
        <time>2018-07-17T07:20:00.000Z</time>
      </trkpt>
      <trkpt lat="46.67281" lon="5.5595">
        <ele>259</ele>
        <time>2018-07-17T07:19:58.000Z</time>
      </trkpt>
      <trkpt lat="46.67286" lon="5.55934">
        <ele>259.4</ele>
        <time>2018-07-17T07:20:08.000Z</time>
      </trkpt>
      <trkpt lat="46.67286" lon="5.55919">
        <ele>259</ele>
        <time>2018-07-17T07:20:06.000Z</time>
      </trkpt>
      <trkpt lat="46.67276" lon="5.55892">
        <ele>259</ele>
        <time>2018-07-17T07:20:14.000Z</time>
      </trkpt>
      <trkpt lat="46.67276" lon="5.55866">
        <ele>259.2</ele>
        <time>2018-07-17T07:20:24.000Z</time>
      </trkpt>
      <trkpt lat="46.67277" lon="5.55851">
        <ele>258</ele>
        <time>2018-07-17T07:20:34.000Z</time>
      </trkpt>
      <trkpt lat="46.67275" lon="5.55813">
        <ele>257</ele>
        <time>2018-07-17T07:20:44.000Z</time>
      </trkpt>
      <trkpt lat="46.67273" lon="5.5579">
        <ele>258</ele>
        <time>2018-07-17T07:20:54.000Z</time>
      </trkpt>
      <trkpt lat="46.67275" lon="5.55778">
        <ele>257</ele>
        <time>2018-07-17T07:21:04.000Z</time>
      </trkpt>
      <trkpt lat="46.67274" lon="5.55748">
        <ele>257</ele>
        <time>2018-07-17T07:21:14.000Z</time>
      </trkpt>
      <trkpt lat="46.67274" lon="5.55732">
        <ele>257</ele>
        <time>2018-07-17T07:21:24.000Z</time>
      </trkpt>
      <trkpt lat="46.67272" lon="5.5571">
        <ele>256</ele>
        <time>2018-07-17T07:21:34.000Z</time>
      </trkpt>
      <trkpt lat="46.67275" lon="5.55696">
        <ele>257</ele>
        <time>2018-07-17T07:21:44.000Z</time>
      </trkpt>
      <trkpt lat="46.67279" lon="5.55681">
        <ele>256</ele>
        <time>2018-07-17T07:21:54.000Z</time>
      </trkpt>
      <trkpt lat="46.67289" lon="5.55676">
        <ele>257.4</ele>
        <time>2018-07-17T07:22:04.000Z</time>
      </trkpt>
      <trkpt lat="46.67296" lon="5.55667">
        <ele>257</ele>
        <time>2018-07-17T07:22:14.000Z</time>
      </trkpt>
      <trkpt lat="46.67299" lon="5.55652">
        <ele>257.2</ele>
        <time>2018-07-17T07:22:24.000Z</time>
      </trkpt>
      <trkpt lat="46.67302" lon="5.55625">
        <ele>257</ele>
        <time>2018-07-17T07:22:34.000Z</time>
      </trkpt>
      <trkpt lat="46.67301" lon="5.55612">
        <ele>256.8</ele>
        <time>2018-07-17T07:22:44.000Z</time>
      </trkpt>
      <trkpt lat="46.67303" lon="5.55591">
        <ele>256</ele>
        <time>2018-07-17T07:21:44.000Z</time>
      </trkpt>
      <trkpt lat="46.67307" lon="5.55554">
        <ele>256</ele>
        <time>2018-07-17T07:21:54.000Z</time>
      </trkpt>
      <trkpt lat="46.67313" lon="5.55509">
        <ele>256</ele>
        <time>2018-07-17T07:22:03.000Z</time>
      </trkpt>
      <trkpt lat="46.6732" lon="5.55496">
        <ele>256</ele>
        <time>2018-07-17T07:22:13.000Z</time>
      </trkpt>
      <trkpt lat="46.67328" lon="5.55489">
        <ele>255</ele>
        <time>2018-07-17T07:22:09.000Z</time>
      </trkpt>
      <trkpt lat="46.67337" lon="5.55484">
        <ele>256.1</ele>
        <time>2018-07-17T07:22:19.000Z</time>
      </trkpt>
      <trkpt lat="46.6736" lon="5.5548">
        <ele>255</ele>
        <time>2018-07-17T07:22:21.000Z</time>
      </trkpt>
      <trkpt lat="46.67379" lon="5.55486">
        <ele>256</ele>
        <time>2018-07-17T07:22:28.000Z</time>
      </trkpt>
      <trkpt lat="46.67397" lon="5.55489">
        <ele>256.6</ele>
        <time>2018-07-17T07:22:38.000Z</time>
      </trkpt>
      <trkpt lat="46.67409" lon="5.55496">
        <ele>256</ele>
        <time>2018-07-17T07:22:48.000Z</time>
      </trkpt>
      <trkpt lat="46.67416" lon="5.55486">
        <ele>256.5</ele>
        <time>2018-07-17T07:22:58.000Z</time>
      </trkpt>
      <trkpt lat="46.67422" lon="5.55473">
        <ele>255</ele>
        <time>2018-07-17T07:22:53.000Z</time>
      </trkpt>
      <trkpt lat="46.67427" lon="5.55458">
        <ele>255.5</ele>
        <time>2018-07-17T07:23:03.000Z</time>
      </trkpt>
      <trkpt lat="46.67432" lon="5.55445">
        <ele>255</ele>
        <time>2018-07-17T07:23:01.000Z</time>
      </trkpt>
      <trkpt lat="46.67441" lon="5.55435">
        <ele>255</ele>
        <time>2018-07-17T07:23:11.000Z</time>
      </trkpt>
      <trkpt lat="46.67448" lon="5.55424">
        <ele>255</ele>
        <time>2018-07-17T07:23:21.000Z</time>
      </trkpt>
      <trkpt lat="46.67452" lon="5.55411">
        <ele>255</ele>
        <time>2018-07-17T07:23:31.000Z</time>
      </trkpt>
      <trkpt lat="46.67468" lon="5.55374">
        <ele>254</ele>
        <time>2018-07-17T07:23:41.000Z</time>
      </trkpt>
      <trkpt lat="46.67476" lon="5.55357">
        <ele>255</ele>
        <time>2018-07-17T07:23:51.000Z</time>
      </trkpt>
      <trkpt lat="46.67466" lon="5.55352">
        <ele>254</ele>
        <time>2018-07-17T07:23:27.000Z</time>
      </trkpt>
      <trkpt lat="46.67456" lon="5.55342">
        <ele>254.6</ele>
        <time>2018-07-17T07:23:37.000Z</time>
      </trkpt>
      <trkpt lat="46.67447" lon="5.5533">
        <ele>254</ele>
        <time>2018-07-17T07:23:35.000Z</time>
      </trkpt>
      <trkpt lat="46.67431" lon="5.55305">
        <ele>254</ele>
        <time>2018-07-17T07:23:45.000Z</time>
      </trkpt>
      <trkpt lat="46.67416" lon="5.5528">
        <ele>254</ele>
        <time>2018-07-17T07:23:55.000Z</time>
      </trkpt>
      <trkpt lat="46.67405" lon="5.5526">
        <ele>254</ele>
        <time>2018-07-17T07:24:05.000Z</time>
      </trkpt>
      <trkpt lat="46.67387" lon="5.5525">
        <ele>254</ele>
        <time>2018-07-17T07:24:15.000Z</time>
        <extensions>
          <visugpx:TrkExtension xmlns:visugpx="https://www.visugpx.com/editgpx/">
            <visugpx:node>14</visugpx:node>
            </visugpx:TrkExtension>
        </extensions>
      </trkpt>
    </trkseg>
  </trk>
</gpx>